• Join FlightAware (Why Join?)
  • Login
  • US Flag 
06:27PM EST


 

Airport Tracker/Info


-or-


 

Live Flight TrackerFlight Track Log ✈ SIA21 ✈ 01-Nov-2013 ✈ KEWR - WSSS / SIN

Flight Track Log - Related Links

Times and Time Zones

All times are in EDT time to prevent confusion due to time zone crossing. See the SIA21 flight status page for this flight to view local times or setup timezone preferences in your user account.

Time Position Orientation Groundspeed Altitude Reporting Facility
EDT Latitude Longitude Course Direction KTS MPH feet Rate Location/Type
11:10PM 40.6420 -74.1930 200° South 171 197 1,900  Level FlightAware
11:11PM 40.6200 -74.2050 202° Southwest 173 199 2,500 1,080 Climbing FlightAware
11:11PM 40.6120 -74.2200 235° Southwest 169 194 2,800 840 Climbing FlightAware
11:12PM 40.6260 -74.2420 310° West 186 214 3,200 780 Climbing FlightAware
11:12PM 40.6500 -74.2310 19° North 203 234 3,600 780 Climbing FlightAware
11:13PM 40.6830 -74.2050 31° Northeast 229 264 4,100 720 Climbing FlightAware
11:13PM 40.7150 -74.1790 32° Northeast 259 298 4,500 840 Climbing FlightAware
11:14PM 40.7510 -74.1460 35° Northeast 283 326 5,100 1,200 Climbing FlightAware
11:15PM 40.7800 -74.0880 57° Northeast 307 353 6,000 1,560 Climbing FlightAware
11:15PM 40.8100 -74.0250 58° Northeast 315 362 7,200 1,860 Climbing FlightAware
11:16PM 40.8300 -73.9860 56° Northeast 316 364 8,000 1,620 Climbing FlightAware
11:16PM 40.8580 -73.9590 36° Northeast 323 372 8,500 1,440 Climbing FlightAware
11:17PM 40.8899 -73.9259 38° Northeast 330 380 9,200 1,440 Climbing FlightAware ADS-B (KSNC)
11:18PM 40.9730 -73.8390 38° Northeast 354 407 10,800 1,080 Climbing FlightAware
11:19PM 41.0540 -73.7560 38° Northeast 396 456 11,600 840 Climbing FlightAware
11:20PM 41.1300 -73.6770 38° Northeast 426 490 12,400 1,200 Climbing FlightAware
11:20PM 41.2207 -73.5839 38° Northeast 440 506 13,800 1,500 Climbing FlightAware ADS-B (KSNC)
11:21PM 41.2746 -73.5281 38° Northeast 445 512 14,700 1,380 Climbing FlightAware ADS-B (KSNC)
11:22PM 41.3243 -73.4764 38° Northeast 452 520 15,300 1,440 Climbing FlightAware ADS-B (KSNC)
11:22PM 41.3816 -73.4167 38° Northeast 455 524 16,300 1,320 Climbing FlightAware ADS-B (KSNC)
11:23PM 41.4509 -73.3530 35° Northeast 460 529 17,000 1,080 Climbing FlightAware ADS-B (KSNC)
11:23PM 41.4993 -73.3383 13° North 446 513 17,500 1,440 Climbing FlightAware ADS-B (KSNC)
11:24PM 41.5616 -73.3345 North 446 513 18,300 1,560 Climbing FlightAware ADS-B (KSNC)
11:24PM 41.6483 -73.3288 North 445 512 19,400 1,200 Climbing FlightAware ADS-B (KSNC)
11:25PM 41.7042 -73.3253 North 457 526 19,800 960 Climbing FlightAware ADS-B (KSNC)
11:26PM 41.8050 -73.3190 North 465 535 20,600 1,020 Climbing FlightAware
11:26PM 41.8453 -73.3166 North 470 541 20,900 1,080 Climbing FlightAware ADS-B (KSNC)
11:27PM 41.9251 -73.3116 North 475 547 21,600 1,020 Climbing FlightAware ADS-B (KSNC)
11:27PM 41.9988 -73.3070 North 481 554 22,100 900 Climbing FlightAware ADS-B (KSNC)
11:28PM 42.0817 -73.3018 North 489 563 22,700 900 Climbing FlightAware ADS-B (KSNC)
11:28PM 42.1512 -73.2968 North 508 585 23,300 780 Climbing FlightAware ADS-B (KSNC)
11:29PM 42.2205 -73.2719 15° North 533 613 23,500 600 Climbing FlightAware ADS-B (KSNC)
11:29PM 42.2702 -73.2320 31° Northeast 548 631 23,800 720 Climbing FlightAware ADS-B (KSNC)
11:30PM 42.3905 -73.1194 35° Northeast 558 642 24,600 840 Climbing FlightAware ADS-B (KSNC)
11:31PM 42.5120 -73.0060 35° Northeast 562 647 25,400 840 Climbing FlightAware
11:32PM 42.6011 -72.9228 35° Northeast 568 654 26,000 660 Climbing FlightAware ADS-B (SBBR / BSB)
11:32PM 42.6959 -72.8336 35° Northeast 572 658 26,400 780 Climbing FlightAware ADS-B (SBBR / BSB)
11:33PM 42.7960 -72.7391 35° Northeast 582 670 27,300 900 Climbing FlightAware ADS-B (KSNC)
11:34PM 42.8782 -72.6613 35° Northeast 583 671 27,700 900 Climbing FlightAware ADS-B (KSNC)
11:35PM 42.9741 -72.5701 35° Northeast 584 672 28,400 1,080 Climbing FlightAware ADS-B (KSNC)
11:35PM 43.0504 -72.4972 35° Northeast 587 676 29,200 1,080 Climbing FlightAware ADS-B (SBBR / BSB)
11:36PM 43.1487 -72.4033 35° Northeast 575 662 29,900 1,020 Climbing FlightAware ADS-B
11:36PM 43.1645 -72.3881 35° Northeast 583 671 30,000 1,200 Climbing FlightAware ADS-B (SBBR / BSB)
11:36PM 43.2140 -72.3405 35° Northeast 583 671 30,500 780 Climbing FlightAware ADS-B (KSNC)
11:37PM 43.2794 -72.2775 35° Northeast 587 676 30,700 480 Climbing FlightAware ADS-B
11:37PM 43.3483 -72.2111 35° Northeast 587 676 31,000 240 Climbing FlightAware ADS-B
11:38PM 43.4158 -72.1456 35° Northeast 590 679 31,000  Level FlightAware ADS-B
11:38PM 43.4803 -72.0830 35° Northeast 587 676 31,000  Level FlightAware ADS-B (KBOS)
11:39PM 43.5064 -72.0575 35° Northeast 586 674 31,000  Level FlightAware ADS-B (KSNC)
11:39PM 43.5214 -72.0429 35° Northeast 585 673 31,000  Level FlightAware ADS-B (KBOS)
11:39PM 43.5439 -72.0210 35° Northeast 578 665 31,000  Level FlightAware ADS-B
11:39PM 43.6068 -71.9596 35° Northeast 583 671 31,000  Level FlightAware ADS-B (KSNC)
11:40PM 43.6376 -71.9295 35° Northeast 582 670 31,000  Level FlightAware ADS-B (KSNC)
11:40PM 43.6599 -71.9076 35° Northeast 582 670 31,000  Level FlightAware ADS-B (KSNC)
11:40PM 43.7015 -71.8669 35° Northeast 573 659 31,000  Level FlightAware ADS-B
11:41PM 43.7682 -71.8013 35° Northeast 579 666 31,000  Level FlightAware ADS-B (KBOS)
11:41PM 43.8340 -71.7365 35° Northeast 579 666 31,000  Level FlightAware ADS-B (KBOS)
11:42PM 43.9001 -71.6712 35° Northeast 578 665 31,000  Level FlightAware ADS-B (KBOS)
11:42PM 43.9844 -71.5876 36° Northeast 578 665 31,000  Level FlightAware ADS-B (KBOS)
11:43PM 44.0586 -71.5138 36° Northeast 577 664 31,000  Level FlightAware ADS-B (KBOS)
11:43PM 44.1282 -71.4443 36° Northeast 573 659 31,000  Level FlightAware ADS-B
11:44PM 44.2098 -71.3626 36° Northeast 575 662 31,000  Level FlightAware ADS-B
11:45PM 44.3220 -71.2490 36° Northeast 574 661 31,000  Level FlightAware
11:45PM 43.7330 -71.8360 216° Southwest 580 667 31,000  Level FlightAware ADS-B
11:46PM 43.7640 -71.8060 35° Northeast 579 666 31,000  Level FlightAware ADS-B
11:47PM 43.7920 -71.7780 36° Northeast 579 666 31,000  Level FlightAware ADS-B
11:47PM 43.8240 -71.7470 35° Northeast 579 666 31,000  Level FlightAware ADS-B
11:48PM 44.7240 -70.8410 35° Northeast 579 666 31,000  Level FlightAware
11:49PM 44.8360 -70.7260 36° Northeast 579 666 31,000  Level FlightAware
11:49PM 44.9060 -70.6540 36° Northeast 579 666 31,000  Level FlightAware
11:50PM 45.0080 -70.5480 36° Northeast 578 665 31,000  Level FlightAware
11:51PM 45.0720 -70.4810 36° Northeast 578 665 31,000  Level FlightAware
11:51PM 45.1200 -70.4314 36° Northeast 576 663 31,000  Level FlightAware ADS-B
11:52PM 45.2640 -70.2800 36° Northeast 576 663 31,000  Level FlightAware
11:53PM 45.3850 -70.1550 36° Northeast 576 663 31,000  Level FlightAware
11:54PM 45.4930 -70.0390 37° Northeast 580 667 31,000  Level FlightAware
11:55PM 45.6010 -69.9240 37° Northeast 31,000  Level FlightAware
11:56PM 45.7000 -69.8180 37° Northeast 574 661 31,000  Level FlightAware
11:56PM 45.7920 -69.7190 37° Northeast 573 659 31,000  Level FlightAware
11:57PM 45.8830 -69.6210 37° Northeast 574 661 31,000  Level FlightAware
11:58PM 46.0040 -69.4900 37° Northeast 573 659 31,000  Level FlightAware
11:59PM 46.1240 -69.3590 37° Northeast 572 658 31,000  Level FlightAware
11:59PM 46.1850 -69.2930 37° Northeast 573 659 31,000  Level FlightAware
12:00AM 46.3050 -69.1600 37° Northeast 572 658 31,000  Level FlightAware
12:01AM 46.4090 -69.0460 37° Northeast 569 655 31,000  Level FlightAware
12:02AM 46.5140 -68.9300 37° Northeast 568 654 31,000  Level FlightAware
12:03AM 46.6180 -68.8130 38° Northeast 565 650 31,000  Level FlightAware
12:03AM 46.6700 -68.7540 38° Northeast 563 648 31,000  Level FlightAware
12:04AM 46.7690 -68.6440 37° Northeast 564 649 31,000  Level FlightAware
12:05AM 46.8460 -68.5570 38° Northeast 567 652 31,000  Level FlightAware
12:05AM 46.9360 -68.4550 38° Northeast 564 649 31,000  Level FlightAware
12:06AM 47.0110 -68.3690 38° Northeast 565 650 31,000  Level FlightAware
12:07AM 47.0970 -68.2710 38° Northeast 554 638 31,000  Level FlightAware
12:07AM 47.1790 -68.1770 38° Northeast 559 643 31,000  Level FlightAware
12:08AM 47.2500 -68.0950 38° Northeast 559 643 31,000  Level FlightAware
12:09AM 47.3150 -68.0200 38° Northeast 559 643 31,000  Level FlightAware
12:09AM 47.4060 -67.9150 38° Northeast 562 647 31,000  Level FlightAware
12:10AM 47.4670 -67.8440 38° Northeast 563 648 31,000  Level FlightAware
12:11AM 47.5940 -67.6830 41° Northeast 565 650 31,000  Level FlightAware
12:12AM 47.6910 -67.5580 41° Northeast 562 647 31,000  Level FlightAware
12:12AM 47.7230 -67.5170 41° Northeast 562 647 31,000  Level FlightAware
12:13AM 47.8460 -67.3570 41° Northeast 562 647 31,000  Level FlightAware
12:14AM 47.9480 -67.2180 42° Northeast 560 644 31,000  Level FlightAware
12:15AM 48.0560 -67.0730 42° Northeast 551 634 31,000  Level FlightAware
12:15AM 48.1090 -67.0020 42° Northeast 550 633 31,000  Level FlightAware
12:16AM 48.1760 -66.9110 42° Northeast 555 639 31,000  Level FlightAware
12:17AM 48.2910 -66.7550 42° Northeast 552 635 31,000  Level FlightAware
12:18AM 48.3880 -66.6220 42° Northeast 545 627 31,000  Level FlightAware
12:18AM 48.4770 -66.5000 42° Northeast 540 621 31,000  Level FlightAware
12:19AM 48.5270 -66.4320 42° Northeast 542 624 31,000  Level FlightAware
12:19AM 48.5880 -66.3470 43° Northeast 546 628 31,000  Level FlightAware
12:20AM 48.6770 -66.2240 42° Northeast 549 632 31,000  Level FlightAware
12:21AM 48.7580 -66.1110 43° Northeast 552 635 31,000  Level FlightAware
12:22AM 48.8430 -65.9910 43° Northeast 551 634 31,000  Level FlightAware
12:23AM 48.9320 -65.8650 43° Northeast 547 629 31,000 60 Level FlightAware
12:23AM 48.9910 -65.7820 43° Northeast 535 616 31,100  Climbing FlightAware
12:24AM 49.0650 -65.6760 43° Northeast 547 629 31,000 -120 Descending FlightAware
12:25AM 49.1620 -65.5390 43° Northeast 539 620 31,000  Level FlightAware
12:25AM 49.2200 -65.4550 43° Northeast 537 618 31,000  Level FlightAware
12:26AM 49.3220 -65.3080 43° Northeast 546 628 31,000  Level FlightAware
12:27AM 49.3980 -65.1980 43° Northeast 548 631 31,000  Level FlightAware
12:27AM 49.4540 -65.1160 44° Northeast 550 633 31,000  Level FlightAware
12:28AM 49.5430 -64.9860 43° Northeast 544 626 31,000  Level FlightAware
12:29AM 49.6300 -64.8590 43° Northeast 543 625 31,000  Level FlightAware
12:29AM 49.6920 -64.7670 44° Northeast 540 621 31,000  Level FlightAware
12:30AM 49.7540 -64.6750 44° Northeast 541 623 31,000  Level FlightAware
12:31AM 49.8200 -64.5780 43° Northeast 541 623 31,000  Level FlightAware
12:32AM 49.9180 -64.4360 43° Northeast 541 623 31,000  Level FlightAware
12:33AM 49.9890 -64.3320 43° Northeast 541 623 31,000  Level FlightAware
12:33AM 50.0450 -64.2510 43° Northeast 541 623 31,000  Level FlightAware
12:34AM 50.1220 -64.1400 43° Northeast 541 623 31,000  Level FlightAware
12:35AM 50.1960 -64.0310 43° Northeast 541 623 31,000  Level FlightAware
12:36AM 50.2900 -63.8950 43° Northeast 541 623 31,000  Level FlightAware
12:37AM 50.3830 -63.7590 43° Northeast 541 623 31,000  Level FlightAware
12:38AM 50.4760 -63.6220 43° Northeast 541 623 31,000  Level FlightAware
12:39AM 50.5510 -63.5120 43° Northeast 541 623 31,000  Level FlightAware
12:39AM 50.6070 -63.4300 43° Northeast 541 623 31,000  Level FlightAware
12:40AM 50.6820 -63.3200 43° Northeast 541 623 31,000  Level FlightAware
12:41AM 50.9000 -62.9000 43° Northeast 540 621 31,000  Level Gander Center
12:42AM 51.0000 -62.7500 43° Northeast 540 621 31,000  Level Gander Center
12:43AM 51.1000 -62.5667 49° Northeast 540 621 31,000  Level Gander Center
12:44AM 51.2000 -62.4000 46° Northeast 530 610 31,000  Level Gander Center
12:45AM 51.3000 -62.2167 49° Northeast 530 610 31,000  Level Gander Center
12:46AM 51.4000 -62.0667 43° Northeast 540 621 31,000  Level Gander Center
12:47AM 51.5167 -61.8667 47° Northeast 540 621 31,000  Level Gander Center
12:48AM 51.6167 -61.7167 43° Northeast 540 621 31,000  Level Gander Center
12:49AM 51.7167 -61.5333 49° Northeast 540 621 31,000 120 Level Gander Center
12:50AM 51.8167 -61.3667 46° Northeast 540 621 31,300 360 Climbing Gander Center
12:51AM 51.9333 -61.1667 47° Northeast 540 621 31,800 480 Climbing Gander Center
12:52AM 52.0500 -61.0167 38° Northeast 550 633 32,300 540 Climbing Gander Center
12:53AM 52.1333 -60.8167 56° Northeast 550 633 32,900 300 Climbing Gander Center
12:54AM 52.2333 -60.6333 48° Northeast 550 633 33,000  Climbing Gander Center
12:55AM 52.3333 -60.4333 51° Northeast 550 633 33,000  Level Gander Center
12:56AM 52.4333 -60.2667 45° Northeast 550 633 33,000  Level Gander Center
12:57AM 52.5333 -60.0667 51° Northeast 550 633 33,000  Level Gander Center
12:58AM 52.6500 -59.8833 44° Northeast 550 633 33,000  Level Gander Center
12:59AM 52.7333 -59.7000 53° Northeast 550 633 33,000  Level Gander Center
01:00AM 52.8500 -59.5167 43° Northeast 540 621 33,000  Level Gander Center
01:01AM 52.9500 -59.3167 50° Northeast 540 621 33,000  Level Gander Center
01:02AM 53.0500 -59.1167 50° Northeast 540 621 33,000  Level Gander Center
01:03AM 53.1167 -58.9333 59° Northeast 530 610 33,000  Level Gander Center
01:04AM 53.2333 -58.7333 46° Northeast 540 621 33,000  Level Gander Center
01:05AM 53.3167 -58.5667 50° Northeast 530 610 33,000  Level Gander Center
01:06AM 53.4333 -58.3667 46° Northeast 530 610 33,000  Level Gander Center
01:07AM 53.5000 -58.1667 61° Northeast 530 610 33,000  Level Gander Center
01:08AM 53.6000 -57.9833 47° Northeast 520 598 33,000  Level Gander Center
01:09AM 53.7000 -57.7833 50° Northeast 530 610 33,000  Level Gander Center
01:10AM 53.8000 -57.6000 47° Northeast 530 610 33,000  Level Gander Center
01:11AM 53.8833 -57.4000 55° Northeast 520 598 33,100 300 Climbing Gander Center
01:12AM 53.9833 -57.2167 47° Northeast 520 598 33,600 540 Climbing Gander Center
01:13AM 54.0667 -57.0000 57° Northeast 530 610 34,200 540 Climbing Gander Center
01:14AM 54.1500 -56.8333 49° Northeast 530 610 34,700 360 Climbing Gander Center
01:15AM 54.2500 -56.6167 52° Northeast 530 610 35,000 120 Climbing Gander Center
01:16AM 54.3333 -56.4333 52° Northeast 530 610 35,000  Level Gander Center
01:17AM 54.4333 -56.2167 52° Northeast 530 610 35,000  Level Gander Center
01:18AM 54.5167 -56.0167 54° Northeast 520 598 35,000  Level Gander Center
01:19AM 54.6167 -55.8167 49° Northeast 520 598 35,000  Level Gander Center
01:20AM 54.7000 -55.6333 52° Northeast 520 598 35,000  Level Gander Center
01:21AM 54.8000 -55.4167 51° Northeast 520 598 35,000  Level Gander Center
01:22AM 54.8833 -55.2333 52° Northeast 510 587 35,000  Level Gander Center
01:23AM 54.9667 -55.0500 52° Northeast 510 587 35,000  Level Gander Center
01:24AM 55.0500 -54.8333 56° Northeast 510 587 35,000  Level Gander Center
01:25AM 55.1333 -54.6333 54° Northeast 510 587 35,000  Level Gander Center
01:26AM 55.2333 -54.4500 46° Northeast 510 587 35,000  Level Gander Center
01:27AM 55.3000 -54.2667 57° Northeast 510 587 35,000  Level Gander Center
01:28AM 55.4000 -54.0667 49° Northeast 500 575 35,000  Level Gander Center
01:29AM 55.4667 -53.8500 61° Northeast 510 587 35,000  Level Gander Center
01:30AM 55.5500 -53.6500 54° Northeast 510 587 35,000  Level Gander Center
01:31AM 55.6500 -53.4667 46° Northeast 510 587 35,000  Level Gander Center
01:32AM 55.7333 -53.2667 53° Northeast 520 598 35,000  Level Gander Center
01:35AM 55.8610 -52.9432 55° Northeast  Level FlightAware Approximate
01:42AM 56.4420 -51.4744 54° Northeast  Level FlightAware Approximate
01:43AM 56.5244 -51.2621 55° Northeast  Level FlightAware Approximate
01:44AM 56.6065 -51.0488 55° Northeast  Level FlightAware Approximate
01:45AM 56.6883 -50.8346 55° Northeast  Level FlightAware Approximate
01:46AM 56.7696 -50.6195 55° Northeast  Level FlightAware Approximate
01:47AM 56.8506 -50.4035 56° Northeast  Level FlightAware Approximate
01:48AM 56.9313 -50.1866 56° Northeast  Level FlightAware Approximate
01:49AM 57.0087 -49.9657 65° Northeast  Level FlightAware Approximate
01:50AM 57.0686 -49.7264 65° Northeast  Level FlightAware Approximate
01:50AM 57.2000 -49.1333 66° East 550 633 35,000  Level Gander Center
01:51AM 57.1282 -49.4864 65° Northeast  Level FlightAware Approximate
01:51AM 57.2667 -48.8667 65° Northeast 550 633 35,000  Level Gander Center
01:52AM 57.1873 -49.2456 66° East  Level FlightAware Approximate
01:52AM 57.3167 -48.6000 71° East 550 633 35,000  Level Gander Center
01:53AM 57.2459 -49.0040 66° East  Level FlightAware Approximate
01:53AM 57.3833 -48.3500 64° Northeast 540 621 35,000  Level Gander Center
01:54AM 57.3040 -48.7617 66° East  Level FlightAware Approximate
01:54AM 57.4333 -48.0833 71° East 540 621 35,000  Level Gander Center
01:55AM 57.3617 -48.5186 66° East  Level FlightAware Approximate
01:55AM 57.5000 -47.8500 62° Northeast 540 621 35,000  Level Gander Center
01:56AM 57.4189 -48.2747 66° East  Level FlightAware Approximate
01:56AM 57.5500 -47.5667 72° East 540 621 35,000  Level Gander Center
01:57AM 57.6167 -47.3333 62° Northeast 530 610 35,000  Level Gander Center
01:58AM 57.6667 -47.0833 69° East 540 621 35,000  Level Gander Center
01:59AM 57.7167 -46.8167 71° East 540 621 35,000  Level Gander Center
02:00AM 57.7833 -46.5667 63° Northeast 540 621 35,000  Level Gander Center
02:01AM 57.8333 -46.2833 72° East 540 621 35,000  Level Gander Center
02:02AM 57.8833 -46.0500 68° East 540 621 35,000  Level Gander Center
02:03AM 57.9500 -45.7667 66° East 540 621 35,000  Level Gander Center
02:04AM 58.0000 -45.5167 69° East 550 633 35,000  Level Gander Center
02:05AM 58.0500 -45.2333 71° East 550 633 35,000  Level Gander Center
02:06AM 58.1000 -44.9667 70° East 550 633 35,000  Level Gander Center
02:07AM 58.1667 -44.7000 65° Northeast 550 633 35,000  Level Gander Center
02:08AM 58.2167 -44.4167 71° East 550 633 35,000  Level Gander Center
02:09AM 58.2667 -44.1667 69° East 550 633 35,000  Level Gander Center
02:10AM 58.3167 -43.8833 71° East 550 633 35,000  Level Gander Center
02:11AM 58.3667 -43.6000 71° East 550 633 35,000  Level Gander Center
02:12AM 58.4167 -43.3500 69° East 560 644 35,000  Level Gander Center
02:13AM 58.4667 -43.0667 71° East 560 644 35,000  Level Gander Center
02:14AM 58.5167 -42.7667 72° East 560 644 35,000  Level Gander Center
02:15AM 58.5667 -42.5167 69° East 560 644 35,000  Level Gander Center
02:16AM 58.6167 -42.2333 71° East 560 644 35,000  Level Gander Center
02:17AM 58.6500 -41.9500 77° East 560 644 35,000  Level Gander Center
02:18AM 58.7000 -41.6500 72° East 560 644 35,000  Level Gander Center
02:19AM 58.7667 -41.3833 64° Northeast 560 644 35,000  Level Gander Center
02:20AM 58.8000 -41.1000 77° East 560 644 35,000  Level Gander Center
02:21AM 58.8500 -40.8167 71° East 560 644 35,000  Level Gander Center
02:22AM 58.8833 -40.5167 78° East 560 644 35,000  Level Gander Center
02:23AM 58.9333 -40.2500 70° East 560 644 35,000  Level Gander Center
02:24AM 58.9833 -39.9500 72° East 560 644 35,000  Level Gander Center
02:25AM 59.0167 -39.6667 77° East 560 644 35,000  Level Gander Center
02:26AM 59.0667 -39.3667 72° East 560 644 35,000  Level Gander Center
02:27AM 59.1000 -39.1167 75° East 560 644 35,000  Level Gander Center
02:28AM 59.1333 -38.8167 78° East 560 644 35,000  Level Gander Center
02:29AM 59.1833 -38.5167 72° East 560 644 35,000  Level Gander Center
02:30AM 59.2167 -38.2333 77° East 560 644 35,000  Level Gander Center
02:31AM 59.2500 -37.9333 78° East 560 644 35,000  Level Gander Center
02:32AM 59.2833 -37.6333 78° East 560 644 35,000  Level Gander Center
02:33AM 59.3167 -37.3333 78° East 560 644 35,000  Level Gander Center
02:34AM 59.3500 -37.0667 76° East 560 644 35,000  Level Gander Center
02:35AM 59.4000 -36.7667 72° East 560 644 35,000  Level Gander Center
02:36AM 59.4333 -36.4667 78° East 550 633 35,000  Level Gander Center
02:37AM 59.4500 -36.1667 84° East 550 633 35,000  Level Gander Center
02:38AM 59.5000 -35.9000 70° East 550 633 35,000  Level Gander Center
02:39AM 59.5167 -35.6000 84° East 550 633 35,000  Level Gander Center
02:40AM 59.5500 -35.3000 78° East 550 633 35,000  Level Gander Center
02:43AM 59.5874 -34.9438 78° East  Level FlightAware Approximate
02:50AM 59.7741 -32.9877 78° East  Level FlightAware Approximate
02:51AM 59.7984 -32.7066 80° East  Level FlightAware Approximate
02:52AM 59.8221 -32.4250 80° East  Level FlightAware Approximate
02:53AM 59.8451 -32.1430 81° East  Level FlightAware Approximate
02:54AM 59.8676 -31.8607 81° East  Level FlightAware Approximate
02:55AM 59.8895 -31.5779 81° East  Level FlightAware Approximate
02:56AM 59.9108 -31.2948 81° East  Level FlightAware Approximate
02:57AM 59.9314 -31.0114 82° East  Level FlightAware Approximate
02:58AM 59.9515 -30.7276 82° East  Level FlightAware Approximate
02:59AM 59.9709 -30.4434 82° East  Level FlightAware Approximate
03:00AM 59.9897 -30.1590 82° East  Level FlightAware Approximate
03:01AM 60.0047 -29.8732 86° East  Level FlightAware Approximate
03:02AM 60.0150 -29.5867 86° East  Level FlightAware Approximate
03:03AM 60.0246 -29.3001 86° East  Level FlightAware Approximate
03:04AM 60.0337 -29.0132 86° East  Level FlightAware Approximate
03:05AM 60.0421 -28.7263 87° East  Level FlightAware Approximate
03:06AM 60.0498 -28.4392 87° East  Level FlightAware Approximate
03:07AM 60.0570 -28.1520 87° East  Level FlightAware Approximate
03:08AM 60.0635 -27.8646 87° East  Level FlightAware Approximate
03:09AM 60.0694 -27.5771 88° East  Level FlightAware Approximate
03:10AM 60.0747 -27.2896 88° East  Level FlightAware Approximate
03:11AM 60.0794 -27.0019 88° East  Level FlightAware Approximate
03:12AM 60.0834 -26.7142 88° East  Level FlightAware Approximate
03:13AM 60.0868 -26.4265 89° East  Level FlightAware Approximate
03:14AM 60.0896 -26.1386 89° East  Level FlightAware Approximate
03:15AM 60.0918 -25.8507 89° East  Level FlightAware Approximate
03:16AM 60.0933 -25.5628 89° East  Level FlightAware Approximate
03:17AM 60.0942 -25.2749 90° East  Level FlightAware Approximate
03:18AM 60.0945 -24.9869 90° East  Level FlightAware Approximate
03:19AM 60.0942 -24.6990 90° East  Level FlightAware Approximate
03:20AM 60.0932 -24.4111 90° East  Level FlightAware Approximate
03:21AM 60.0916 -24.1232 91° East  Level FlightAware Approximate
03:22AM 60.0894 -23.8353 91° East  Level FlightAware Approximate
03:23AM 60.0865 -23.5475 91° East  Level FlightAware Approximate
03:24AM 60.0831 -23.2597 91° East  Level FlightAware Approximate
03:25AM 60.0790 -22.9720 92° East  Level FlightAware Approximate
03:26AM 60.0743 -22.6843 92° East  Level FlightAware Approximate
03:27AM 60.0689 -22.3968 92° East  Level FlightAware Approximate
03:28AM 60.0630 -22.1094 92° East  Level FlightAware Approximate
03:29AM 60.0564 -21.8220 93° East  Level FlightAware Approximate
03:30AM 60.0492 -21.5348 93° East  Level FlightAware Approximate
03:31AM 60.0413 -21.2477 93° East  Level FlightAware Approximate
03:32AM 60.0329 -20.9608 93° East  Level FlightAware Approximate
03:33AM 60.0238 -20.6740 94° East  Level FlightAware Approximate
03:34AM 60.0141 -20.3873 94° East  Level FlightAware Approximate
03:35AM 60.0038 -20.1009 94° East  Level FlightAware Approximate
03:36AM 60.0228 -19.8197 76° East  Level FlightAware Approximate
03:37AM 60.0576 -19.5408 76° East  Level FlightAware Approximate
03:38AM 60.0918 -19.2613 76° East  Level FlightAware Approximate
03:39AM 60.1253 -18.9812 76° East  Level FlightAware Approximate
03:40AM 60.1583 -18.7005 77° East  Level FlightAware Approximate
03:41AM 60.1907 -18.4193 77° East  Level FlightAware Approximate
03:42AM 60.2225 -18.1376 77° East  Level FlightAware Approximate
03:43AM 60.2537 -17.8553 77° East  Level FlightAware Approximate
03:44AM 60.2843 -17.5725 78° East  Level FlightAware Approximate
03:45AM 60.3143 -17.2891 78° East  Level FlightAware Approximate
03:46AM 60.3437 -17.0053 78° East  Level FlightAware Approximate
03:47AM 60.3725 -16.7209 78° East  Level FlightAware Approximate
03:48AM 60.4007 -16.4360 79° East  Level FlightAware Approximate
03:49AM 60.4282 -16.1507 79° East  Level FlightAware Approximate
03:50AM 60.4552 -15.8648 79° East  Level FlightAware Approximate
03:51AM 60.4815 -15.5785 79° East  Level FlightAware Approximate
03:52AM 60.5073 -15.2917 80° East  Level FlightAware Approximate
03:53AM 60.5324 -15.0045 80° East  Level FlightAware Approximate
03:54AM 60.5569 -14.7169 80° East  Level FlightAware Approximate
03:55AM 60.5808 -14.4288 80° East  Level FlightAware Approximate
03:56AM 60.6040 -14.1403 81° East  Level FlightAware Approximate
03:57AM 60.6267 -13.8513 81° East  Level FlightAware Approximate
03:58AM 60.6487 -13.5620 81° East  Level FlightAware Approximate
03:59AM 60.6701 -13.2723 81° East  Level FlightAware Approximate
04:00AM 60.6908 -12.9822 82° East  Level FlightAware Approximate
04:01AM 60.7109 -12.6917 82° East  Level FlightAware Approximate
04:02AM 60.7304 -12.4009 82° East  Level FlightAware Approximate
04:03AM 60.7493 -12.1098 82° East  Level FlightAware Approximate
04:04AM 60.7676 -11.8183 83° East  Level FlightAware Approximate
04:05AM 60.7852 -11.5264 83° East  Level FlightAware Approximate
04:06AM 60.8021 -11.2343 83° East  Level FlightAware Approximate
04:07AM 60.8185 -10.9418 83° East  Level FlightAware Approximate
04:08AM 60.8342 -10.6491 84° East  Level FlightAware Approximate
04:09AM 60.8492 -10.3561 84° East  Level FlightAware Approximate
04:10AM 60.8637 -10.0628 84° East  Level FlightAware Approximate
04:11AM 60.8782 -9.7694 84° East  Level FlightAware Approximate
04:12AM 60.8922 -9.4757 84° East  Level FlightAware Approximate
04:13AM 60.9056 -9.1818 85° East  Level FlightAware Approximate
04:14AM 60.9184 -8.8877 85° East  Level FlightAware Approximate
04:15AM 60.9305 -8.5934 85° East  Level FlightAware Approximate
04:16AM 60.9419 -8.2988 85° East  Level FlightAware Approximate
04:17AM 60.9528 -8.0040 86° East  Level FlightAware Approximate
04:18AM 60.9629 -7.7090 86° East  Level FlightAware Approximate
04:18AM 61.0450 -8.5730 86° East 497 572 35,000  Level FlightAware
04:19AM 60.9725 -7.4138 86° East  Level FlightAware Approximate
04:19AM 61.0500 -8.3920 87° East 498 573 35,000  Level FlightAware
04:20AM 60.9814 -7.1185 86° East  Level FlightAware Approximate
04:20AM 61.0580 -8.0560 87° East 501 577 35,000  Level FlightAware
04:21AM 61.0620 -7.8890 87° East 504 580 35,000  Level FlightAware
04:22AM 61.0680 -7.5530 88° East 505 581 35,000  Level FlightAware
04:22AM 61.0720 -7.3830 87° East 506 582 35,000  Level FlightAware
04:23AM 61.0740 -7.2410 88° East 506 582 35,000  Level FlightAware
04:23AM 61.0770 -7.0680 88° East 506 582 35,000  Level FlightAware
04:24AM 61.0790 -6.9210 88° East 504 580 35,000  Level FlightAware
04:24AM 61.0810 -6.7570 88° East 504 580 35,000  Level FlightAware
04:25AM 61.0830 -6.6130 88° East 505 581 35,000  Level FlightAware
04:26AM 61.0860 -6.2990 89° East 503 579 35,000  Level FlightAware
04:27AM 61.0870 -6.1930 89° East 502 578 35,000  Level FlightAware
04:27AM 61.0890 -6.0140 89° East 502 578 35,000  Level FlightAware
04:28AM 61.0900 -5.8800 89° East 503 579 35,000  Level FlightAware
04:28AM 61.0900 -5.7220 90° East 504 580 35,000  Level FlightAware
04:29AM 61.0920 -5.4090 89° East 508 585 35,000  Level FlightAware
04:30AM 61.0920 -5.2630 90° East 507 583 35,000  Level FlightAware
04:30AM 61.0930 -5.1240 89° East 507 583 35,000  Level FlightAware
04:31AM 61.0920 -4.8440 90° East 511 588 35,000  Level FlightAware
04:32AM 61.0920 -4.6580 90° East 511 588 35,000  Level FlightAware
04:33AM 61.0920 -4.4790 90° East 513 590 35,000  Level FlightAware
04:33AM 61.0910 -4.3150 91° East 513 590 35,000  Level FlightAware
04:34AM 61.0900 -4.1410 91° East 513 590 35,000  Level FlightAware
04:34AM 61.0890 -4.0050 91° East 513 590 35,000  Level FlightAware
04:35AM 61.0870 -3.7260 91° East 514 592 35,000  Level FlightAware
04:36AM 61.0850 -3.5620 91° East 515 593 35,000  Level FlightAware
04:36AM 61.0830 -3.3890 91° East 515 593 35,000  Level FlightAware
04:37AM 61.0810 -3.1980 91° East 514 592 35,000  Level FlightAware
04:38AM 61.0780 -2.9990 92° East 515 593 35,000  Level FlightAware
04:38AM 61.0770 -2.9200 91° East 516 594 35,000  Level FlightAware
04:39AM 61.0740 -2.7800 92° East 516 594 35,000  Level FlightAware
04:39AM 61.0720 -2.6440 92° East 515 593 35,000  Level FlightAware
04:40AM 61.0680 -2.4420 92° East 517 595 35,000  Level FlightAware
04:40AM 61.0660 -2.3250 92° East 517 595 35,000  Level FlightAware
04:41AM 61.0580 -1.9480 92° East 518 596 35,000  Level FlightAware
04:42AM 61.0520 -1.7000 93° East 519 597 35,000  Level FlightAware
04:42AM 61.0480 -1.5460 93° East 518 596 35,000  Level FlightAware
04:43AM 61.0420 -1.3060 93° East 518 596 35,000  Level FlightAware
04:44AM 61.0380 -1.1510 93° East 518 596 35,000  Level FlightAware
04:44AM 61.0330 -1.0050 94° East 519 597 35,000  Level FlightAware
04:45AM 61.0280 -0.8150 93° East 522 601 35,000  Level FlightAware
04:46AM 61.0200 -0.5730 94° East 522 601 35,000  Level FlightAware
04:46AM 61.0150 -0.4160 94° East 520 598 35,000  Level FlightAware
04:47AM 61.0090 -0.2530 94° East 520 598 35,000  Level FlightAware
04:47AM 61.0030 -0.0780 94° East 519 597 35,000  Level FlightAware
04:48AM 60.9880 0.1030 100° East 516 594 35,000  Level FlightAware
04:49AM 60.9800 0.3250 94° East 519 597 35,000  Level FlightAware
04:49AM 60.9770 0.5070 92° East 517 595 35,000  Level FlightAware
04:50AM 60.9730 0.6800 93° East 517 595 35,000  Level FlightAware
04:50AM 60.9690 0.8610 93° East 520 598 35,000  Level FlightAware
04:51AM 60.9650 1.0510 92° East 520 598 35,000  Level FlightAware
04:52AM 60.9610 1.2150 93° East 519 597 35,000  Level FlightAware
04:52AM 60.9570 1.3720 93° East 518 596 35,000  Level FlightAware
04:53AM 60.9520 1.5540 93° East 516 594 35,000  Level FlightAware
04:53AM 60.9470 1.7250 93° East 517 595 35,000  Level FlightAware
04:54AM 60.9390 1.9690 94° East 519 597 35,000  Level FlightAware
04:55AM 60.9330 2.1780 93° East 520 598 35,000  Level FlightAware
04:55AM 60.9280 2.3180 94° East 521 600 35,000  Level FlightAware
04:56AM 60.9220 2.4880 94° East 520 598 35,000  Level FlightAware
04:57AM 60.9150 2.6710 94° East 520 598 35,000  Level FlightAware
04:57AM 60.9090 2.8430 94° East 522 601 35,000  Level FlightAware
04:58AM 60.9030 3.0010 94° East 523 602 35,000  Level FlightAware
04:58AM 60.8950 3.2110 94° East 523 602 35,000  Level FlightAware
05:00AM 60.8810 3.5340 95° East 527 606 35,000  Level FlightAware
05:00AM 60.8750 3.6750 95° East 528 608 35,000  Level FlightAware
05:01AM 60.8680 3.8300 95° East 527 606 35,000  Level FlightAware
05:01AM 60.8600 4.0020 95° East 527 606 35,000  Level FlightAware
05:02AM 60.8460 4.3000 95° East 524 603 35,000  Level FlightAware
05:03AM 60.8360 4.4900 96° East 523 602 35,000  Level FlightAware
05:03AM 60.8280 4.6480 96° East 526 605 35,000  Level FlightAware
05:04AM 60.8160 4.8850 96° East 532 612 35,000  Level FlightAware
05:05AM 60.8070 5.0470 96° East 528 608 35,000  Level FlightAware
05:05AM 60.7980 5.2060 97° East 526 605 35,000  Level FlightAware
05:06AM 60.7807 5.5169 96° East 526 605 35,000  Level FlightAware ADS-B (EGBP)
05:07AM 60.7693 5.7098 97° East 520 598 35,000  Level FlightAware ADS-B (EGBP)
05:07AM 60.7603 5.8577 97° East 520 598 35,000  Level FlightAware ADS-B (EGBP)
05:08AM 60.7513 6.0036 97° East 521 600 35,000  Level FlightAware ADS-B (EGBP)
05:08AM 60.7421 6.1510 97° East 523 602 35,000  Level FlightAware ADS-B (EGBP)
05:09AM 60.7305 6.3328 97° East 523 602 35,000  Level FlightAware ADS-B (EGBP)
05:09AM 60.7205 6.4862 98° East 523 602 35,000  Level FlightAware ADS-B (EGBP)
05:10AM 60.7102 6.6411 98° East 527 606 35,000  Level FlightAware ADS-B (EGBP)
05:11AM 60.7002 6.7888 98° East 527 606 35,000  Level FlightAware ADS-B (EGBP)
05:11AM 60.6900 6.9362 98° East 527 606 35,000  Level FlightAware ADS-B (EGBP)
05:12AM 60.6777 7.1128 98° East 526 605 35,000  Level FlightAware ADS-B (EGBP)
05:12AM 60.6666 7.2680 98° East 525 604 35,000  Level FlightAware ADS-B (EGBP)
05:13AM 60.6516 7.4745 98° East 523 602 35,000  Level FlightAware ADS-B (EGBP)
05:13AM 60.6398 7.6347 99° East 522 601 35,000  Level FlightAware ADS-B (EGBP)
05:15AM 60.6150 7.9600 99° East 522 601 35,000  Level FlightAware
05:15AM 60.6010 8.1410 99° East 524 603 35,000  Level FlightAware
05:16AM 60.5840 8.3500 99° East 523 602 35,000  Level FlightAware
05:17AM 60.5680 8.5480 99° East 517 595 35,000  Level FlightAware
05:17AM 60.5550 8.7030 100° East 522 601 35,000  Level FlightAware
05:18AM 60.5390 8.8930 100° East 523 602 35,000  Level FlightAware
05:18AM 60.5240 9.0700 100° East 521 600 35,000  Level FlightAware
05:19AM 60.5060 9.2810 100° East 523 602 35,000  Level FlightAware
05:20AM 60.4890 9.4740 100° East 522 601 35,000  Level FlightAware
05:20AM 60.4740 9.6350 101° East 524 603 35,000  Level FlightAware
05:21AM 60.4550 9.8450 100° East 524 603 35,000  Level FlightAware
05:22AM 60.4430 9.9790 100° East 521 600 35,000  Level FlightAware
05:22AM 60.4290 10.1250 101° East 520 598 35,000  Level FlightAware
05:23AM 60.4120 10.3010 101° East 520 598 35,000  Level FlightAware
05:23AM 60.3950 10.4830 101° East 518 596 35,000  Level FlightAware
05:24AM 60.3710 10.7180 102° East 514 592 35,000  Level FlightAware
05:25AM 60.3500 10.9290 101° East 512 589 35,000  Level FlightAware
05:25AM 60.3340 11.0910 101° East 517 595 35,000  Level FlightAware
05:26AM 60.3140 11.2790 102° East 517 595 35,000  Level FlightAware
05:27AM 60.2980 11.4380 101° East 519 597 35,000  Level FlightAware
05:27AM 60.2740 11.6640 102° East 516 594 35,000  Level FlightAware
05:28AM 60.2500 11.8850 102° East 510 587 35,000  Level FlightAware
05:29AM 60.2300 12.0690 102° East 510 587 35,000  Level FlightAware
05:30AM 60.2060 12.2770 103° East 512 589 35,000  Level FlightAware
05:30AM 60.1830 12.4800 103° East 518 596 35,000  Level FlightAware
05:31AM 60.1620 12.6640 103° East 520 598 35,000  Level FlightAware
05:32AM 60.1340 12.9040 103° East 518 596 35,000  Level FlightAware
05:33AM 60.1080 13.1300 103° East 517 595 35,000  Level FlightAware
05:34AM 60.0640 13.4920 104° East 516 594 35,000  Level FlightAware
05:35AM 60.0270 13.7910 104° East 511 588 35,000  Level FlightAware
05:36AM 60.0100 13.9240 104° East 511 588 35,000  Level FlightAware
05:36AM 59.9830 14.1360 104° East 513 590 35,000  Level FlightAware
05:37AM 59.9600 14.3160 104° East 514 592 35,000  Level FlightAware
05:38AM 59.9380 14.4830 105° East 516 594 35,000  Level FlightAware
05:38AM 59.9140 14.6630 105° East 518 596 35,000  Level FlightAware
05:39AM 59.8880 14.8630 104° East 517 595 35,000  Level FlightAware
05:40AM 59.8630 15.0500 105° East 515 593 35,000  Level FlightAware
05:41AM 59.8170 15.3860 105° East 512 589 35,000  Level FlightAware
05:41AM 59.8000 15.5060 106° East 516 594 35,000  Level FlightAware
05:42AM 59.7810 15.6430 105° East 521 600 35,000  Level FlightAware
05:43AM 59.7540 15.8310 106° East 521 600 35,000  Level FlightAware
05:43AM 59.7300 15.9980 106° East 513 590 35,000  Level FlightAware
05:44AM 59.7040 16.1730 106° East 508 585 35,000  Level FlightAware
05:45AM 59.6580 16.4890 106° East 506 582 35,000  Level FlightAware
05:45AM 59.6390 16.6140 107° East 506 582 35,000  Level FlightAware
05:46AM 59.6110 16.8050 106° East 503 579 35,000  Level FlightAware
05:47AM 59.5870 16.9580 107° East 504 580 35,000  Level FlightAware
05:48AM 59.5570 17.1580 106° East 504 580 35,000  Level FlightAware
05:49AM 59.5090 17.4610 107° East 505 581 35,000  Level FlightAware
05:49AM 59.4860 17.6060 107° East 510 587 35,000  Level FlightAware
05:50AM 59.4590 17.7780 107° East 507 583 35,000  Level FlightAware
05:51AM 59.4300 17.9560 108° East 507 583 35,000  Level FlightAware
05:51AM 59.3940 18.1800 107° East 504 580 35,000  Level FlightAware
05:52AM 59.3680 18.3340 108° East 503 579 35,000  Level FlightAware
05:53AM 59.3400 18.5040 108° East 506 582 35,000  Level FlightAware
05:53AM 59.3200 18.6260 108° East 508 585 35,000  Level FlightAware
05:54AM 59.2830 18.8420 108° East 512 589 35,000  Level FlightAware
05:55AM 59.2550 19.0060 108° East 512 589 35,000  Level FlightAware
05:55AM 59.2340 19.1280 109° East 514 592 35,000  Level FlightAware
05:56AM 59.2020 19.3120 109° East 515 593 35,000  Level FlightAware
05:56AM 59.1710 19.4870 109° East 517 595 35,000  Level FlightAware
05:57AM 59.1390 19.6700 109° East 515 593 35,000  Level FlightAware
05:58AM 59.1070 19.8490 109° East 513 590 35,000  Level FlightAware
05:58AM 59.0780 20.0090 109° East 515 593 35,000  Level FlightAware
06:00AM 59.0210 20.3200 109° East 516 594 35,000  Level FlightAware
06:00AM 58.9860 20.5080 110° East 517 595 35,000  Level FlightAware
06:01AM 58.9500 20.7040 110° East 519 597 35,000  Level FlightAware
06:02AM 58.9170 20.8770 110° East 520 598 35,000  Level FlightAware
06:02AM 58.8900 21.0560 106° East 522 601 35,000  Level FlightAware
06:03AM 58.8710 21.2120 103° East 522 601 35,000  Level FlightAware
06:04AM 58.8500 21.3810 103° East 522 601 35,000  Level FlightAware
06:04AM 58.8270 21.5600 104° East 522 601 35,000  Level FlightAware
06:05AM 58.8020 21.7580 104° East 520 598 35,000  Level FlightAware
06:05AM 58.7850 21.8860 104° East 519 597 35,000  Level FlightAware
06:06AM 58.7650 22.0420 104° East 519 597 35,000  Level FlightAware
06:07AM 58.7430 22.2060 104° East 518 596 35,000  Level FlightAware
06:07AM 58.7190 22.3810 105° East 517 595 35,000  Level FlightAware
06:08AM 58.6950 22.5570 105° East 520 598 35,000  Level FlightAware
06:08AM 58.6780 22.6840 104° East 523 602 35,000  Level FlightAware
06:09AM 58.6560 22.8420 105° East 525 604 35,000  Level FlightAware
06:10AM 58.6140 23.1420 105° East 527 606 35,000  Level FlightAware
06:11AM 58.5910 23.3060 105° East 527 606 35,000  Level FlightAware
06:12AM 58.5660 23.4790 105° East 526 605 35,000  Level FlightAware
06:12AM 58.5360 23.6820 106° East 521 600 35,000  Level FlightAware
06:13AM 58.5140 23.8340 105° East 523 602 35,000  Level FlightAware
06:13AM 58.4900 23.9900 106° East 525 604 35,000  Level FlightAware
06:14AM 58.4710 24.1180 106° East 527 606 35,000  Level FlightAware
06:15AM 58.4370 24.3440 106° East 528 608 35,000  Level FlightAware
06:15AM 58.4100 24.5170 107° East 528 608 35,000  Level FlightAware
06:16AM 58.3820 24.6780 108° East 526 605 35,000  Level FlightAware
06:17AM 58.3500 24.8530 109° East 525 604 35,000  Level FlightAware
06:17AM 58.3230 25.0050 109° East 525 604 35,000  Level FlightAware
06:18AM 58.2910 25.1820 109° East 524 603 35,000  Level FlightAware
06:18AM 58.2690 25.3000 109° East 522 601 35,000  Level FlightAware
06:19AM 58.2370 25.4730 109° East 520 598 35,000  Level FlightAware
06:19AM 58.2150 25.5910 109° East 520 598 35,000  Level FlightAware
06:20AM 58.1800 25.7820 109° East 521 600 35,000  Level FlightAware
06:21AM 58.1450 25.9640 110° East 522 601 35,000  Level FlightAware
06:22AM 58.1050 26.1760 110° East 521 600 35,000  Level FlightAware
06:22AM 58.0680 26.3690 110° East 522 601 35,000  Level FlightAware
06:23AM 58.0240 26.5920 110° East 520 598 35,000  Level FlightAware
06:24AM 57.9990 26.7210 110° East 519 597 35,000  Level FlightAware
06:24AM 57.9710 26.8620 110° East 516 594 35,000  Level FlightAware
06:25AM 57.9370 27.0330 110° East 515 593 35,000  Level FlightAware
06:26AM 57.9000 27.2140 111° Southeast 516 594 35,000  Level FlightAware
06:27AM 57.8600 27.4120 111° Southeast 519 597 35,000  Level FlightAware
06:27AM 57.8220 27.5620 115° Southeast 514 592 35,000  Level FlightAware
06:28AM 57.7850 27.6800 120° Southeast 514 592 35,000  Level FlightAware
06:28AM 57.7360 27.8370 120° Southeast 516 594 35,000  Level FlightAware
06:29AM 57.7010 27.9430 122° Southeast 515 593 35,000  Level FlightAware
06:30AM 57.6490 28.0980 122° Southeast 516 594 35,000  Level FlightAware
06:30AM 57.5990 28.2450 122° Southeast 515 593 35,000  Level FlightAware
06:31AM 57.5470 28.4000 122° Southeast 516 594 35,000  Level FlightAware
06:32AM 57.4970 28.5460 122° Southeast 514 592 35,000  Level FlightAware
06:32AM 57.4460 28.6940 123° Southeast 511 588 35,000  Level FlightAware
06:33AM 57.4040 28.8150 123° Southeast 511 588 35,000  Level FlightAware
06:34AM 57.3430 28.9920 123° Southeast 516 594 35,000  Level FlightAware
06:34AM 57.3050 29.1000 123° Southeast 516 594 35,000  Level FlightAware
06:35AM 57.2550 29.2410 123° Southeast 515 593 35,000  Level FlightAware
06:35AM 57.2010 29.3940 123° Southeast 515 593 35,000  Level FlightAware
06:36AM 57.1430 29.5580 123° Southeast 514 592 35,000  Level FlightAware
06:37AM 57.1120 29.6450 123° Southeast 514 592 35,000  Level FlightAware
06:37AM 57.0440 29.8330 124° Southeast 514 592 35,000  Level FlightAware
06:38AM 57.0240 29.8880 124° Southeast 512 589 35,000  Level FlightAware
06:39AM 56.9390 30.1220 124° Southeast 514 592 35,000  Level FlightAware
06:39AM 56.8850 30.2690 124° Southeast 511 588 35,000  Level FlightAware
06:40AM 56.8340 30.4090 124° Southeast 511 588 35,000  Level FlightAware
06:41AM 56.7820 30.5490 124° Southeast 515 593 35,000  Level FlightAware
06:41AM 56.7230 30.7050 125° Southeast 512 589 35,000  Level FlightAware
06:42AM 56.6720 30.8130 131° Southeast 505 581 35,000  Level FlightAware
06:43AM 56.6020 30.9680 129° Southeast 502 578 35,000  Level FlightAware
06:43AM 56.5510 31.0830 129° Southeast 502 578 35,000  Level FlightAware
06:44AM 56.4900 31.2290 127° Southeast 502 578 35,000  Level FlightAware
06:45AM 56.4480 31.3320 126° Southeast 502 578 35,000  Level FlightAware
06:45AM 56.4040 31.4370 127° Southeast 502 578 35,000  Level FlightAware
06:46AM 56.3610 31.5400 127° Southeast 502 578 35,000  Level FlightAware
06:47AM 56.3180 31.6420 127° Southeast 502 578 35,000  Level FlightAware
06:47AM 56.2750 31.7440 127° Southeast 502 578 35,000  Level FlightAware
06:48AM 56.1590 32.1680 116° Southeast 508 585 35,000  Level FlightAware
06:49AM 56.1130 32.2870 125° Southeast 508 585 35,000  Level FlightAware
06:50AM 56.0520 32.4390 126° Southeast 507 583 35,000  Level FlightAware
06:50AM 56.0050 32.5590 125° Southeast 505 581 35,000  Level FlightAware
06:51AM 55.9440 32.7140 125° Southeast 507 583 35,000  Level FlightAware
06:52AM 55.8780 32.8800 125° Southeast 508 585 35,000  Level FlightAware
06:53AM 55.8250 32.9960 129° Southeast 502 578 35,000  Level FlightAware
06:53AM 55.7570 33.1390 130° Southeast 505 581 35,000  Level FlightAware
06:54AM 55.7130 33.2340 129° Southeast 505 581 35,000  Level FlightAware
06:54AM 55.6520 33.3590 131° Southeast 506 582 35,000  Level FlightAware
06:55AM 55.5990 33.4690 130° Southeast 508 585 35,000  Level FlightAware
06:56AM 55.5450 33.5790 131° Southeast 508 585 35,000  Level FlightAware
06:56AM 55.5060 33.6580 131° Southeast 507 583 35,000  Level FlightAware
06:57AM 55.4300 33.8140 131° Southeast 505 581 35,000  Level FlightAware
06:58AM 55.3700 33.9390 130° Southeast 508 585 35,000  Level FlightAware
06:58AM 55.3100 34.0650 130° Southeast 506 582 35,000  Level FlightAware
06:59AM 55.2570 34.1750 130° Southeast 508 585 35,000  Level FlightAware
06:59AM 55.1980 34.2970 130° Southeast 505 581 35,000  Level FlightAware
07:00AM 55.1510 34.3920 131° Southeast 504 580 35,000  Level FlightAware
07:01AM 55.0920 34.5130 130° Southeast 502 578 35,000  Level FlightAware
07:01AM 55.0300 34.6340 132° Southeast 501 577 35,000  Level FlightAware
07:02AM 54.9930 34.7080 131° Southeast 501 577 35,000  Level FlightAware
07:02AM 54.9310 34.8340 131° Southeast 503 579 35,000  Level FlightAware
07:03AM 54.8590 34.9940 128° Southeast 512 589 35,000  Level FlightAware
07:04AM 54.8130 35.1360 119° Southeast 517 595 35,000  Level FlightAware
07:04AM 54.7810 35.2700 112° Southeast 518 596 35,000  Level FlightAware
07:05AM 54.7510 35.4720 104° East 520 598 35,000  Level FlightAware
07:06AM 54.7390 35.6780 96° East 520 598 35,000  Level FlightAware
07:07AM 54.7390 35.7940 90° East 520 598 35,000  Level FlightAware
07:07AM 54.7370 36.0070 91° East 520 598 35,000  Level FlightAware
07:08AM 54.7360 36.1950 90° East 519 597 35,000  Level FlightAware
07:09AM 54.7350 36.3820 90° East 519 597 35,000  Level FlightAware
07:09AM 54.7340 36.5050 91° East 520 598 35,000  Level FlightAware
07:10AM 54.7230 36.6710 96° East 518 596 35,000  Level FlightAware
07:10AM 54.7130 36.7480 103° East 517 595 35,000  Level FlightAware
07:11AM 54.6710 36.9820 107° East 517 595 35,000  Level FlightAware
07:12AM 54.6470 37.1180 107° East 519 597 35,000  Level FlightAware
07:13AM 54.6170 37.2790 108° East 516 594 35,000  Level FlightAware
07:13AM 54.5770 37.4290 115° Southeast 511 588 35,000  Level FlightAware
07:14AM 54.5310 37.5890 116° Southeast 515 593 35,000  Level FlightAware
07:15AM 54.4880 37.7380 116° Southeast 518 596 35,000  Level FlightAware
07:15AM 54.4470 37.8820 116° Southeast 518 596 35,000  Level FlightAware
07:16AM 54.4110 38.0110 116° Southeast 517 595 35,000  Level FlightAware
07:17AM 54.3670 38.1660 116° Southeast 515 593 35,000  Level FlightAware
07:17AM 54.3380 38.2910 112° Southeast 518 596 35,000  Level FlightAware
07:18AM 54.3060 38.4880 105° East 514 592 35,000  Level FlightAware
07:19AM 54.2810 38.6470 105° East 514 592 35,000  Level FlightAware
07:19AM 54.2560 38.8030 105° East 518 596 35,000  Level FlightAware
07:20AM 54.2310 38.9620 105° East 521 600 35,000  Level FlightAware
07:21AM 54.2130 39.0880 104° East 519 597 35,000  Level FlightAware
07:21AM 54.1930 39.2300 103° East 516 594 35,000  Level FlightAware
07:22AM 54.1700 39.3910 104° East 516 594 35,000  Level FlightAware
07:23AM 54.1450 39.5620 104° East 517 595 35,000  Level FlightAware
07:23AM 54.1280 39.6750 104° East 518 596 35,000  Level FlightAware
07:24AM 54.1000 39.8620 104° East 517 595 35,000  Level FlightAware
07:25AM 54.0600 40.1270 104° East 517 595 35,000  Level FlightAware
07:26AM 54.0410 40.2530 104° East 518 596 35,000  Level FlightAware
07:26AM 54.0150 40.4170 105° East 519 597 35,000  Level FlightAware
07:27AM 53.9910 40.5760 104° East 518 596 35,000  Level FlightAware
07:27AM 53.9750 40.6760 105° East 517 595 35,000  Level FlightAware
07:28AM 53.9490 40.8430 105° East 518 596 35,000  Level FlightAware
07:29AM 53.9270 40.9790 105° East 518 596 35,000  Level FlightAware
07:29AM 53.8990 41.1560 105° East 516 594 35,000  Level FlightAware
07:30AM 53.8710 41.3320 105° East 516 594 35,000  Level FlightAware
07:31AM 53.8420 41.5140 105° East 518 596 35,000  Level FlightAware
07:32AM 53.8170 41.6680 105° East 519 597 35,000  Level FlightAware
07:32AM 53.7940 41.8090 105° East 520 598 35,000  Level FlightAware
07:33AM 53.7660 41.9810 105° East 519 597 35,000  Level FlightAware
07:34AM 53.7390 42.1380 106° East 517 595 35,000  Level FlightAware
07:34AM 53.7080 42.3270 105° East 516 594 35,000  Level FlightAware
07:35AM 53.6810 42.4830 106° East 516 594 35,000  Level FlightAware
07:36AM 53.6610 42.6070 105° East 516 594 35,000  Level FlightAware
07:36AM 53.6480 42.7480 99° East 514 592 35,000  Level FlightAware
07:37AM 53.6440 42.8790 93° East 513 590 35,000  Level FlightAware
07:38AM 53.6370 43.1010 93° East 513 590 35,000  Level FlightAware
07:38AM 53.6310 43.2800 93° East 517 595 35,000  Level FlightAware
07:39AM 53.6260 43.4240 93° East 520 598 35,000  Level FlightAware
07:40AM 53.6190 43.6060 94° East 523 602 35,000  Level FlightAware
07:41AM 53.6120 43.8060 93° East 521 600 35,000  Level FlightAware
07:41AM 53.6050 43.9890 94° East 520 598 35,000  Level FlightAware
07:43AM 53.5740 44.2650 101° East 518 596 35,000  Level FlightAware
07:43AM 53.5510 44.4000 106° East 520 598 35,000  Level FlightAware
07:44AM 53.5320 44.5120 106° East 519 597 35,000  Level FlightAware
07:44AM 53.4990 44.7090 106° East 519 597 35,000  Level FlightAware
07:45AM 53.4680 44.8840 107° East 522 601 35,000  Level FlightAware
07:46AM 53.4370 45.0600 106° East 523 602 35,000  Level FlightAware
07:47AM 53.4070 45.2320 106° East 520 598 35,000  Level FlightAware
07:47AM 53.3790 45.3850 107° East 520 598 35,000  Level FlightAware
07:48AM 53.3440 45.5790 107° East 519 597 35,000  Level FlightAware
07:49AM 53.3230 45.6930 107° East 518 596 35,000  Level FlightAware
07:50AM 53.2740 45.9600 107° East 519 597 35,000  Level FlightAware
07:51AM 53.2460 46.1120 107° East 519 597 35,000  Level FlightAware
07:51AM 53.2210 46.2460 107° East 520 598 35,000  Level FlightAware
07:52AM 53.1920 46.3970 108° East 520 598 35,000  Level FlightAware
07:52AM 53.1630 46.5510 107° East 519 597 35,000  Level FlightAware
07:53AM 53.1370 46.6830 108° East 518 596 35,000  Level FlightAware
07:54AM 53.1130 46.8100 107° East 520 598 35,000  Level FlightAware
07:54AM 53.0820 46.9680 108° East 520 598 35,000  Level FlightAware
07:55AM 53.0520 47.1200 108° East 519 597 35,000  Level FlightAware
07:55AM 53.0300 47.2310 108° East 520 598 35,000  Level FlightAware
07:56AM 53.0000 47.3840 108° East 518 596 35,000  Level FlightAware
07:57AM 52.9740 47.4960 111° Southeast 517 595 35,000  Level FlightAware
07:57AM 52.9450 47.6020 114° Southeast 516 594 35,000 240 Level FlightAware
07:58AM 52.9060 47.7450 114° Southeast 516 594 35,300 720 Climbing FlightAware
07:58AM 52.8720 47.8730 114° Southeast 521 600 35,900 960 Climbing FlightAware
07:59AM 52.8430 47.9780 115° Southeast 524 603 36,400 720 Climbing FlightAware
08:00AM 52.7820 48.1950 115° Southeast 518 596 37,000 360 Climbing FlightAware
08:00AM 52.7460 48.3250 115° Southeast 521 600 37,000  Level FlightAware
08:01AM 52.6900 48.5250 115° Southeast 525 604 37,000  Level FlightAware
08:02AM 52.6550 48.6470 115° Southeast 524 603 37,000  Level FlightAware
08:03AM 52.6130 48.7950 115° Southeast 521 600 37,000  Level FlightAware
08:03AM 52.5730 48.9390 115° Southeast 521 600 37,000  Level FlightAware
08:04AM 52.5270 49.0980 115° Southeast 520 598 37,000  Level FlightAware
08:05AM 52.4810 49.2570 115° Southeast 522 601 37,000  Level FlightAware
08:05AM 52.4450 49.3810 115° Southeast 522 601 37,000  Level FlightAware
08:06AM 52.4030 49.5260 115° Southeast 522 601 37,000  Level FlightAware
08:07AM 52.3670 49.6500 115° Southeast 520 598 37,000  Level FlightAware
08:07AM 52.3150 49.8260 116° Southeast 519 597 37,000  Level FlightAware
08:08AM 52.2800 49.9430 116° Southeast 518 596 37,000  Level FlightAware
08:09AM 52.2360 50.0890 116° Southeast 517 595 37,000  Level FlightAware
08:09AM 52.1950 50.2270 116° Southeast 518 596 37,000  Level FlightAware
08:10AM 52.1300 50.3920 123° Southeast 518 596 37,000  Level FlightAware
08:11AM 52.0840 50.4810 130° Southeast 518 596 37,000  Level FlightAware
08:11AM 52.0410 50.5510 135° Southeast 517 595 37,000  Level FlightAware
08:12AM 51.9200 50.7030 142° Southeast 515 593 37,000  Level FlightAware
08:13AM 51.8530 50.7860 143° Southeast 515 593 37,000  Level FlightAware
08:13AM 51.7850 50.8630 145° Southeast 513 590 37,000  Level FlightAware
08:14AM 51.7080 50.9480 146° Southeast 514 592 37,000  Level FlightAware
08:15AM 51.6290 51.0350 146° Southeast 513 590 37,000  Level FlightAware
08:15AM 51.5580 51.1090 147° Southeast 512 589 37,000  Level FlightAware
08:16AM 51.4840 51.1870 147° Southeast 512 589 37,000  Level FlightAware
08:17AM 51.3910 51.2850 147° Southeast 511 588 37,000  Level FlightAware
08:17AM 51.3040 51.3770 147° Southeast 513 590 37,000  Level FlightAware
08:18AM 51.2230 51.4610 147° Southeast 514 592 37,000  Level FlightAware
08:19AM 51.1510 51.5470 143° Southeast 514 592 37,000  Level FlightAware
08:19AM 51.0910 51.6430 135° Southeast 514 592 37,000  Level FlightAware
08:20AM 51.0320 51.7580 129° Southeast 513 590 37,000  Level FlightAware
08:21AM 50.9790 51.8650 128° Southeast 511 588 37,000  Level FlightAware
08:22AM 50.9000 52.0180 129° Southeast 510 587 37,000  Level FlightAware
08:22AM 50.8370 52.1370 130° Southeast 510 587 37,000  Level FlightAware
08:23AM 50.7910 52.2260 129° Southeast 510 587 37,000  Level FlightAware
08:24AM 50.7250 52.3510 130° Southeast 510 587 37,000  Level FlightAware
08:24AM 50.6610 52.4710 130° Southeast 510 587 37,000  Level FlightAware
08:25AM 50.5870 52.6110 130° Southeast 508 585 37,000  Level FlightAware
08:26AM 50.5380 52.7030 130° Southeast 506 582 37,000  Level FlightAware
08:26AM 50.4960 52.7810 130° Southeast 506 582 37,000  Level FlightAware
08:27AM 50.4140 52.9330 130° Southeast 504 580 37,000  Level FlightAware
08:27AM 50.3790 52.9980 130° Southeast 504 580 37,000  Level FlightAware
08:28AM 50.2870 53.1670 130° Southeast 505 581 37,000  Level FlightAware
08:29AM 50.2530 53.2300 130° Southeast 505 581 37,000  Level FlightAware
08:30AM 50.1790 53.3650 131° Southeast 505 581 37,000  Level FlightAware
08:30AM 50.1340 53.4470 131° Southeast 504 580 37,000  Level FlightAware
08:31AM 50.0500 53.6010 130° Southeast 502 578 37,000  Level FlightAware
08:32AM 50.0100 53.6720 131° Southeast 502 578 37,000  Level FlightAware
08:32AM 49.9450 53.7910 130° Southeast 502 578 37,000  Level FlightAware
08:33AM 49.8650 53.9310 132° Southeast 501 577 37,000  Level FlightAware
08:34AM 49.7860 54.0720 131° Southeast 501 577 37,000  Level FlightAware
08:34AM 49.7550 54.1270 131° Southeast 501 577 37,000  Level FlightAware
08:35AM 49.6930 54.2380 131° Southeast 501 577 37,000  Level FlightAware
08:36AM 49.6620 54.2930 131° Southeast 501 577 37,000  Level FlightAware
08:36AM 49.6150 54.3750 131° Southeast 501 577 37,000  Level FlightAware
08:37AM 49.5530 54.4860 131° Southeast 501 577 37,000  Level FlightAware
08:38AM 49.5060 54.5680 131° Southeast 501 577 37,000  Level FlightAware
08:39AM 49.4130 54.7330 131° Southeast 501 577 37,000  Level FlightAware
08:39AM 49.3670 54.8150 131° Southeast 501 577 37,000  Level FlightAware
08:40AM 49.3200 54.8970 131° Southeast 501 577 37,000  Level FlightAware
08:41AM 49.2580 55.0060 131° Southeast 501 577 37,000  Level FlightAware
08:41AM 49.2120 55.0880 131° Southeast 501 577 37,000  Level FlightAware
08:42AM 49.1480 55.2000 131° Southeast 501 577 37,000  Level FlightAware
08:43AM 49.1020 55.2820 131° Southeast 501 577 37,000  Level FlightAware
08:46AM 48.8938 55.7717 123° Southeast  Level Estimated
08:47AM 48.8153 55.9543 123° Southeast  Level Estimated
08:48AM 48.7364 56.1363 123° Southeast  Level Estimated
08:49AM 48.6572 56.3178 123° Southeast  Level Estimated
08:50AM 48.5778 56.4986 124° Southeast  Level Estimated
08:51AM 48.4980 56.6789 124° Southeast  Level Estimated
08:52AM 48.4180 56.8587 124° Southeast  Level Estimated
08:53AM 48.3377 57.0378 124° Southeast  Level Estimated
08:54AM 48.2572 57.2165 124° Southeast  Level Estimated
08:55AM 48.1763 57.3945 124° Southeast  Level Estimated
08:56AM 48.0952 57.5720 124° Southeast  Level Estimated
08:57AM 48.0138 57.7489 124° Southeast  Level Estimated
08:58AM 47.9322 57.9253 125° Southeast  Level Estimated
08:59AM 47.8502 58.1011 125° Southeast  Level Estimated
09:00AM 47.7680 58.2763 125° Southeast  Level Estimated
09:01AM 47.6856 58.4510 125° Southeast  Level Estimated
09:02AM 47.6028 58.6252 125° Southeast  Level Estimated
09:03AM 47.5198 58.7988 125° Southeast  Level Estimated
09:04AM 47.4366 58.9718 125° Southeast  Level Estimated
09:05AM 47.3531 59.1443 126° Southeast  Level Estimated
09:06AM 47.2693 59.3163 126° Southeast  Level Estimated
09:07AM 47.1853 59.4877 126° Southeast  Level Estimated
09:08AM 47.1010 59.6585 126° Southeast  Level Estimated
09:09AM 47.0165 59.8289 126° Southeast  Level Estimated
09:10AM 46.9317 59.9986 126° Southeast  Level Estimated
09:11AM 46.8466 60.1679 126° Southeast  Level Estimated
09:12AM 46.7614 60.3366 126° Southeast  Level Estimated
09:13AM 46.6758 60.5048 127° Southeast  Level Estimated
09:14AM 46.5900 60.6724 127° Southeast  Level Estimated
09:15AM 46.5040 60.8396 127° Southeast  Level Estimated
09:16AM 46.4178 61.0061 127° Southeast  Level Estimated
09:17AM 46.3313 61.1722 127° Southeast  Level Estimated
09:18AM 46.2445 61.3377 127° Southeast  Level Estimated
09:19AM 46.1576 61.5027 127° Southeast  Level Estimated
09:20AM 46.0703 61.6672 127° Southeast  Level Estimated
09:21AM 45.9829 61.8312 127° Southeast  Level Estimated
09:22AM 45.8952 61.9947 128° Southeast  Level Estimated
09:23AM 45.8073 62.1576 128° Southeast  Level Estimated
09:24AM 45.7191 62.3200 128° Southeast  Level Estimated
09:25AM 45.6307 62.4819 128° Southeast  Level Estimated
09:26AM 45.5421 62.6433 128° Southeast  Level Estimated
09:27AM 45.4533 62.8042 128° Southeast  Level Estimated
09:28AM 45.3642 62.9646 128° Southeast  Level Estimated
09:29AM 45.2749 63.1245 128° Southeast  Level Estimated
09:30AM 45.1854 63.2839 129° Southeast  Level Estimated
09:31AM 45.0957 63.4427 129° Southeast  Level Estimated
09:32AM 45.0058 63.6011 129° Southeast  Level Estimated
09:33AM 44.9156 63.7590 129° Southeast  Level Estimated
09:34AM 44.8252 63.9164 129° Southeast  Level Estimated
09:35AM 44.7346 64.0732 129° Southeast  Level Estimated
09:36AM 44.6438 64.2297 129° Southeast  Level Estimated
09:37AM 44.5528 64.3856 129° Southeast  Level Estimated
09:38AM 44.4615 64.5410 129° Southeast  Level Estimated
09:39AM 44.3701 64.6959 130° Southeast  Level Estimated
09:40AM 44.2784 64.8504 130° Southeast  Level Estimated
09:41AM 44.1866 65.0043 130° Southeast  Level Estimated
09:42AM 44.0945 65.1578 130° Southeast  Level Estimated
09:43AM 44.0022 65.3108 130° Southeast  Level Estimated
09:44AM 43.9098 65.4634 130° Southeast  Level Estimated
09:45AM 43.8171 65.6154 130° Southeast  Level Estimated
09:46AM 43.7242 65.7670 130° Southeast  Level Estimated
09:47AM 43.6311 65.9182 130° Southeast  Level Estimated
09:48AM 43.5378 66.0688 130° Southeast  Level Estimated
09:49AM 43.4444 66.2190 131° Southeast  Level Estimated
09:50AM 43.3507 66.3687 131° Southeast  Level Estimated
09:51AM 43.2568 66.5180 131° Southeast  Level Estimated
09:52AM 43.1628 66.6668 131° Southeast  Level Estimated
09:53AM 43.0685 66.8151 131° Southeast  Level Estimated
09:54AM 42.9741 66.9630 131° Southeast  Level Estimated
09:54AM 41.5500 64.7300 131° Southeast 501 577 39,000  Level FlightAware
09:55AM 42.8794 67.1104 131° Southeast  Level Estimated
09:55AM 41.4390 64.7930 157° South 501 577 39,000  Level FlightAware
09:56AM 41.3080 64.8590 159° South 493 567 39,000  Level FlightAware
09:56AM 41.2420 64.8960 157° South 493 567 39,000  Level FlightAware
09:57AM 41.1740 64.9340 157° South 493 567 39,000  Level FlightAware
09:58AM 41.0880 64.9830 157° South 493 567 39,000  Level FlightAware
09:58AM 41.0460 65.0070 157° South 493 567 39,000  Level FlightAware
09:59AM 40.9070 65.0710 161° South 498 573 39,000  Level FlightAware
09:59AM 40.8410 65.1060 158° South 500 575 39,000  Level FlightAware
10:00AM 40.7180 65.1710 158° South 500 575 39,000  Level FlightAware
10:01AM 40.6680 65.2000 156° South 500 575 39,000  Level FlightAware
10:01AM 40.5640 65.2530 159° South 499 574 39,000  Level FlightAware
10:02AM 40.4150 65.3300 159° South 499 574 39,000  Level FlightAware
10:03AM 40.2990 65.3910 158° South 496 571 39,000  Level FlightAware
10:04AM 40.2190 65.4320 159° South 500 575 39,000  Level FlightAware
10:05AM 40.1330 65.4770 158° South 502 578 39,000  Level FlightAware
10:05AM 40.0460 65.5210 159° South 500 575 39,000  Level FlightAware
10:06AM 39.9540 65.5690 158° South 498 573 39,000  Level FlightAware
10:07AM 39.8530 65.6200 159° South 499 574 39,000  Level FlightAware
10:08AM 39.7230 65.6870 158° South 497 572 39,000  Level FlightAware
10:09AM 39.6320 65.7330 159° South 499 574 39,000  Level FlightAware
10:09AM 39.5480 65.7750 159° South 500 575 39,000  Level FlightAware
10:10AM 39.4780 65.8110 158° South 498 573 39,000  Level FlightAware
10:10AM 39.4160 65.8420 159° South 497 572 39,000  Level FlightAware
10:11AM 39.3680 65.8660 159° South 496 571 39,000  Level FlightAware
10:11AM 39.2730 65.9140 159° South 496 571 39,000  Level FlightAware
10:12AM 39.1820 65.9590 159° South 496 571 39,000  Level FlightAware
10:13AM 39.1070 65.9970 159° South 496 571 39,000  Level FlightAware
10:13AM 39.0420 66.0310 158° South 496 571 39,000  Level FlightAware
10:14AM 38.9550 66.0760 158° South 496 571 39,000  Level FlightAware
10:15AM 38.9120 66.0990 157° South 496 571 39,000  Level FlightAware
10:15AM 38.8230 66.1450 158° South 496 571 39,000  Level FlightAware
10:16AM 38.7580 66.1790 158° South 496 571 39,000  Level FlightAware
10:17AM 38.6750 66.2220 158° South 496 571 39,000  Level FlightAware
10:17AM 38.6100 66.2550 158° South 496 571 39,000  Level FlightAware
10:18AM 38.5230 66.3000 158° South 496 571 39,000  Level FlightAware
10:19AM 38.4340 66.3460 158° South 496 571 39,000  Level FlightAware
10:20AM 38.3690 66.3800 158° South 496 571 39,000  Level FlightAware
10:20AM 38.2820 66.4240 158° South 496 571 39,000  Level FlightAware
10:21AM 38.2170 66.4580 158° South 496 571 39,000  Level FlightAware
10:22AM 38.1520 66.4910 158° South 496 571 39,000  Level FlightAware
10:22AM 38.0870 66.5250 158° South 496 571 39,000  Level FlightAware
10:25AM 37.8755 66.8701 128° Southeast  Level Estimated
10:26AM 37.7871 67.0133 128° Southeast  Level Estimated
10:27AM 37.6986 67.1562 128° Southeast  Level Estimated
10:28AM 37.6098 67.2987 128° Southeast  Level Estimated
10:29AM 37.5209 67.4409 128° Southeast  Level Estimated
10:30AM 37.4318 67.5828 128° Southeast  Level Estimated
10:31AM 37.3425 67.7243 128° Southeast  Level Estimated
10:32AM 37.2531 67.8655 128° Southeast  Level Estimated
10:33AM 37.1635 68.0063 129° Southeast  Level Estimated
10:34AM 37.0738 68.1468 129° Southeast  Level Estimated
10:35AM 36.9838 68.2870 129° Southeast  Level Estimated
10:36AM 36.8937 68.4268 129° Southeast  Level Estimated
10:37AM 36.8035 68.5663 129° Southeast  Level Estimated
10:38AM 36.7131 68.7055 129° Southeast  Level Estimated
10:39AM 36.6225 68.8444 129° Southeast  Level Estimated
10:40AM 36.5317 68.9829 129° Southeast  Level Estimated
10:41AM 36.4408 69.1211 129° Southeast  Level Estimated
10:42AM 36.3498 69.2590 129° Southeast  Level Estimated
10:43AM 36.2586 69.3966 129° Southeast  Level Estimated
10:44AM 36.1672 69.5338 129° Southeast  Level Estimated
10:45AM 36.0757 69.6707 130° Southeast  Level Estimated
10:46AM 35.9840 69.8073 130° Southeast  Level Estimated
10:47AM 35.8922 69.9436 130° Southeast  Level Estimated
10:48AM 35.8002 70.0796 130° Southeast  Level Estimated
10:49AM 35.7080 70.2152 130° Southeast  Level Estimated
10:50AM 35.6157 70.3506 130° Southeast  Level Estimated
10:51AM 35.5233 70.4856 130° Southeast  Level Estimated
10:52AM 35.4307 70.6203 130° Southeast  Level Estimated
10:53AM 35.3379 70.7547 130° Southeast  Level Estimated
10:54AM 35.2450 70.8888 130° Southeast  Level Estimated
10:55AM 35.1520 71.0226 130° Southeast  Level Estimated
10:56AM 35.0588 71.1561 130° Southeast  Level Estimated
10:57AM 34.9655 71.2893 131° Southeast  Level Estimated
10:57AM 33.5880 69.7320 131° Southeast 517 595 39,000  Level FlightAware
10:58AM 33.4950 69.7890 153° Southeast 522 601 39,000  Level FlightAware
10:58AM 33.4550 69.8150 152° Southeast 521 600 39,000  Level FlightAware
11:00AM 33.2650 69.9350 152° Southeast 523 602 39,000  Level FlightAware
11:00AM 33.1810 69.9910 151° Southeast 523 602 39,000  Level FlightAware
11:01AM 33.0850 70.0490 153° Southeast 526 605 39,000  Level FlightAware
11:02AM 32.9980 70.1110 149° Southeast 530 610 39,000  Level FlightAware
11:02AM 32.9350 70.1570 148° Southeast 529 609 39,000  Level FlightAware
11:03AM 32.8630 70.2090 149° Southeast 524 603 39,000  Level FlightAware
11:04AM 32.7740 70.2720 149° Southeast 522 601 39,000  Level FlightAware
11:04AM 32.7030 70.3240 148° Southeast 519 597 39,000  Level FlightAware
11:05AM 32.6220 70.3810 149° Southeast 517 595 39,000  Level FlightAware
11:05AM 32.5410 70.4390 149° Southeast 518 596 39,000  Level FlightAware
11:06AM 32.4600 70.4980 148° Southeast 518 596 39,000  Level FlightAware
11:07AM 32.3900 70.5480 149° Southeast 519 597 39,000  Level FlightAware
11:08AM 32.2780 70.6280 149° Southeast 520 598 39,000  Level FlightAware
11:08AM 32.2120 70.6750 149° Southeast 519 597 39,000  Level FlightAware
11:09AM 32.1350 70.7290 149° Southeast 520 598 39,000  Level FlightAware
11:10AM 32.0320 70.8060 148° Southeast 526 605 39,000  Level FlightAware
11:10AM 31.9540 70.8850 139° Southeast 530 610 39,000  Level FlightAware
11:11AM 31.9230 70.9230 134° Southeast 530 610 39,000  Level FlightAware
11:12AM 31.8350 71.0620 127° Southeast 534 615 39,000  Level FlightAware
11:12AM 31.7790 71.1830 119° Southeast 532 612 39,000  Level FlightAware
11:13AM 31.7410 71.2670 118° Southeast 533 613 39,000  Level FlightAware
11:14AM 31.6960 71.3670 118° Southeast 534 615 39,000  Level FlightAware
11:14AM 31.6430 71.4820 118° Southeast 535 616 39,000  Level FlightAware
11:15AM 31.5980 71.5820 118° Southeast 534 615 39,000  Level FlightAware
11:16AM 31.5060 71.7830 118° Southeast 531 611 39,000  Level FlightAware
11:17AM 31.4640 71.8740 118° Southeast 533 613 39,000  Level FlightAware
11:18AM 31.4120 71.9870 118° Southeast 532 612 39,000  Level FlightAware
11:18AM 31.3690 72.0830 118° Southeast 534 615 39,000  Level FlightAware
11:19AM 31.3330 72.1890 112° Southeast 533 613 39,000  Level FlightAware
11:19AM 31.3130 72.2780 105° East 531 611 39,000  Level FlightAware
11:20AM 31.2990 72.3800 99° East 531 611 39,000  Level FlightAware
11:21AM 31.2960 72.5010 92° East 528 608 39,000  Level FlightAware
11:21AM 31.3050 72.6180 85° East 523 602 39,000  Level FlightAware
11:22AM 31.3150 72.7030 82° East 519 597 39,000  Level FlightAware
11:23AM 31.3410 72.9240 82° East 516 594 39,000  Level FlightAware
11:24AM 31.3500 73.0000 82° East 517 595 39,000  Level FlightAware
11:25AM 31.3610 73.1220 84° East 520 598 39,000  Level FlightAware
11:25AM 31.3740 73.2740 84° East 520 598 39,000  Level FlightAware
11:26AM 31.3860 73.4130 84° East 521 600 39,000  Level FlightAware
11:27AM 31.3940 73.5070 84° East 521 600 39,000  Level FlightAware
11:28AM 31.4050 73.6360 84° East 521 600 39,000  Level FlightAware
11:28AM 31.4150 73.7500 84° East 521 600 39,000  Level FlightAware
11:29AM 31.4280 73.8500 81° East 522 601 39,000  Level FlightAware
11:30AM 31.4360 73.9620 85° East 524 603 39,000  Level FlightAware
11:30AM 31.4300 74.0980 93° East 525 604 39,000  Level FlightAware
11:31AM 31.3980 74.2740 102° East 524 603 39,000  Level FlightAware
11:32AM 31.3810 74.3690 102° East 525 604 39,000  Level FlightAware
11:33AM 31.3580 74.4980 102° East 526 605 39,000  Level FlightAware
11:33AM 31.3380 74.6090 102° East 525 604 39,000  Level FlightAware
11:34AM 31.3230 74.6940 102° East 525 604 39,000  Level FlightAware
11:35AM 31.2970 74.8380 102° East 525 604 39,000  Level FlightAware
11:36AM 31.2810 74.9230 102° East 525 604 39,000  Level FlightAware
11:36AM 31.2650 75.0100 102° East 525 604 39,000  Level FlightAware
11:37AM 31.2500 75.0950 102° East 525 604 39,000  Level FlightAware
11:37AM 31.2350 75.1760 102° East 525 604 39,000  Level FlightAware
11:38AM 31.2210 75.2560 102° East 525 604 39,000  Level FlightAware
11:39AM 31.2000 75.3690 102° East 525 604 39,000  Level FlightAware
11:39AM 31.1850 75.4540 102° East 525 604 39,000  Level FlightAware
11:41AM 31.1480 75.6550 102° East 525 604 39,000  Level FlightAware
11:41AM 31.1330 75.7400 102° East 525 604 39,000  Level FlightAware
11:42AM 31.1220 75.7970 103° East 525 604 39,000  Level FlightAware
11:43AM 31.0960 75.9400 102° East 525 604 39,000  Level FlightAware
11:45AM 30.8140 76.3820 127° Southeast 532 612 39,000  Level FlightAware
11:45AM 30.7810 76.4790 112° Southeast 531 611 39,000  Level FlightAware
11:46AM 30.7540 76.5610 111° Southeast 531 611 39,000  Level FlightAware
11:46AM 30.7230 76.6460 113° Southeast 529 609 39,000  Level FlightAware
11:47AM 30.6930 76.7360 111° Southeast 529 609 39,000  Level FlightAware
11:47AM 30.6440 76.8300 121° Southeast 526 605 39,000  Level FlightAware
11:48AM 30.5880 76.9340 122° Southeast 526 605 39,000  Level FlightAware
11:49AM 30.5160 77.0280 132° Southeast 525 604 39,000  Level FlightAware
11:50AM 30.3930 77.1750 134° Southeast 516 594 39,000  Level FlightAware
11:51AM 30.2940 77.2550 145° Southeast 515 593 39,000  Level FlightAware
11:52AM 30.2280 77.2960 152° Southeast 502 578 39,000  Level FlightAware
11:52AM 30.1890 77.3190 153° Southeast 505 581 39,000  Level FlightAware
11:53AM 30.1070 77.3700 152° Southeast 503 579 39,000  Level FlightAware
11:53AM 29.9810 77.4500 151° Southeast 510 587 39,000  Level FlightAware
11:54AM 29.9320 77.4910 144° Southeast 516 594 39,000  Level FlightAware
11:55AM 29.8720 77.5460 142° Southeast 517 595 39,000  Level FlightAware
11:56AM 29.7270 77.6760 142° Southeast 515 593 39,000  Level FlightAware
11:56AM 29.6540 77.7410 142° Southeast 517 595 39,000  Level FlightAware
11:57AM 29.5760 77.8100 142° Southeast 518 596 39,000  Level FlightAware
11:58AM 29.4880 77.8880 142° Southeast 518 596 39,000  Level FlightAware
11:58AM 29.4320 77.9380 142° Southeast 516 594 39,000  Level FlightAware
11:59AM 29.3250 78.0330 142° Southeast 516 594 39,000  Level FlightAware
12:00PM 29.2560 78.0930 143° Southeast 515 593 39,000  Level FlightAware
12:00PM 29.1880 78.1530 142° Southeast 515 593 39,000 120 Level FlightAware
12:01PM 29.0700 78.2570 142° Southeast 519 597 39,200  Climbing FlightAware
12:02PM 29.0140 78.3050 143° Southeast 514 592 39,000 -180 Descending FlightAware
12:03PM 28.9230 78.3850 142° Southeast 515 593 39,000  Level FlightAware
12:03PM 28.8410 78.4570 142° Southeast 515 593 39,000  Level FlightAware
12:04PM 28.7550 78.5320 143° Southeast 515 593 39,000  Level FlightAware
12:05PM 28.6850 78.5930 143° Southeast 512 589 39,000 60 Level FlightAware
12:05PM 28.6160 78.6520 143° Southeast 512 589 39,100 300 Climbing FlightAware
12:06PM 28.5400 78.7180 143° Southeast 517 595 39,400 360 Climbing FlightAware
12:07PM 28.4640 78.7860 142° Southeast 522 601 39,600 240 Climbing FlightAware
12:07PM 28.3910 78.8660 136° Southeast 531 611 39,800 180 Climbing FlightAware
12:08PM 28.3500 78.9140 134° Southeast 533 613 39,900 180 Climbing FlightAware
12:09PM 28.2750 79.0010 134° Southeast 532 612 40,100 120 Climbing FlightAware
12:09PM 28.2360 79.0470 134° Southeast 532 612 40,100  Level FlightAware
12:10PM 28.1840 79.1090 134° Southeast 532 612 40,100  Level FlightAware
12:10PM 28.1310 79.1700 135° Southeast 532 612 40,100  Level FlightAware
12:11PM 28.0540 79.2610 134° Southeast 532 612 40,100  Level FlightAware
12:12PM 28.0020 79.3220 134° Southeast 532 612 40,100  Level FlightAware
12:13PM 27.9310 79.4050 134° Southeast 532 612 40,100  Level FlightAware
12:13PM 27.8780 79.4670 134° Southeast 532 612 40,100  Level FlightAware
12:14PM 27.8260 79.5280 134° Southeast 532 612 40,100  Level FlightAware
12:15PM 27.7740 79.5890 134° Southeast 532 612 40,100  Level FlightAware
12:15PM 27.7390 79.6300 134° Southeast 532 612 40,100  Level FlightAware
12:16PM 27.6720 79.7080 134° Southeast 532 612 40,100  Level FlightAware
12:16PM 27.6200 79.7690 134° Southeast 532 612 40,100  Level FlightAware
12:17PM 27.5660 79.8320 134° Southeast 532 612 40,100  Level FlightAware
12:18PM 27.5120 79.8950 134° Southeast 532 612 40,100  Level FlightAware
12:18PM 27.4760 79.9370 134° Southeast 532 612 40,100  Level FlightAware
12:18PM 27.4580 79.9580 134° Southeast 532 612 40,100  Level FlightAware
12:21PM 27.2179 80.2324 134° Southeast  Level Estimated
12:22PM 27.1170 80.3472 135° Southeast  Level Estimated
12:23PM 27.0161 80.4618 135° Southeast  Level Estimated
12:24PM 26.9150 80.5762 135° Southeast  Level Estimated
12:25PM 26.8138 80.6904 135° Southeast  Level Estimated
12:26PM 26.7125 80.8043 135° Southeast  Level Estimated
12:27PM 26.6112 80.9181 135° Southeast  Level Estimated
12:28PM 26.5098 81.0317 135° Southeast  Level Estimated
12:29PM 26.4082 81.1451 135° Southeast  Level Estimated
12:30PM 26.3066 81.2582 135° Southeast  Level Estimated
12:31PM 26.2049 81.3712 135° Southeast  Level Estimated
12:32PM 26.1031 81.4840 135° Southeast  Level Estimated
12:33PM 26.0012 81.5965 135° Southeast  Level Estimated
12:34PM 25.8992 81.7089 135° Southeast  Level Estimated
12:35PM 25.7972 81.8211 135° Southeast  Level Estimated
12:36PM 25.6950 81.9331 135° Southeast  Level Estimated
12:37PM 25.5928 82.0449 135° Southeast  Level Estimated
12:38PM 25.4905 82.1565 135° Southeast  Level Estimated
12:39PM 25.3881 82.2679 135° Southeast  Level Estimated
12:40PM 25.2856 82.3792 136° Southeast  Level Estimated
12:41PM 25.1830 82.4902 136° Southeast  Level Estimated
12:42PM 25.0804 82.6011 136° Southeast  Level Estimated
12:43PM 24.9777 82.7117 136° Southeast  Level Estimated
12:44PM 24.8748 82.8222 136° Southeast  Level Estimated
12:45PM 24.7720 82.9325 136° Southeast  Level Estimated
12:46PM 24.6690 83.0426 136° Southeast  Level Estimated
12:47PM 24.5659 83.1526 136° Southeast  Level Estimated
12:48PM 24.4628 83.2623 136° Southeast  Level Estimated
12:49PM 24.3596 83.3719 136° Southeast  Level Estimated
12:50PM 24.2563 83.4813 136° Southeast  Level Estimated
12:51PM 24.1529 83.5905 136° Southeast  Level Estimated
12:52PM 24.0495 83.6996 136° Southeast  Level Estimated
12:53PM 23.9460 83.8085 136° Southeast  Level Estimated
12:54PM 23.8424 83.9172 136° Southeast  Level Estimated
12:55PM 23.7387 84.0257 136° Southeast  Level Estimated
12:56PM 23.6349 84.1340 136° Southeast  Level Estimated
12:57PM 23.5311 84.2422 136° Southeast  Level Estimated
12:58PM 23.4272 84.3502 136° Southeast  Level Estimated
12:59PM 23.3232 84.4581 136° Southeast  Level Estimated
01:00PM 23.2192 84.5657 136° Southeast  Level Estimated
01:01PM 23.1150 84.6732 136° Southeast  Level Estimated
01:02PM 23.0109 84.7806 137° Southeast  Level Estimated
01:03PM 22.9066 84.8877 137° Southeast  Level Estimated
01:04PM 22.8022 84.9947 137° Southeast  Level Estimated
01:05PM 22.6978 85.1016 137° Southeast  Level Estimated
01:06PM 22.5933 85.2083 137° Southeast  Level Estimated
01:07PM 22.4888 85.3148 137° Southeast  Level Estimated
01:08PM 22.3842 85.4211 137° Southeast  Level Estimated
01:09PM 22.2795 85.5273 137° Southeast  Level Estimated
01:10PM 22.1747 85.6333 137° Southeast  Level Estimated
01:11PM 22.0699 85.7392 137° Southeast  Level Estimated
01:12PM 21.9650 85.8449 137° Southeast  Level Estimated
01:13PM 21.8600 85.9505 137° Southeast  Level Estimated
01:14PM 21.7550 86.0559 137° Southeast  Level Estimated
01:15PM 21.6499 86.1612 137° Southeast  Level Estimated
01:16PM 21.5447 86.2663 137° Southeast  Level Estimated
01:17PM 21.4395 86.3712 137° Southeast  Level Estimated
01:18PM 21.3342 86.4760 137° Southeast  Level Estimated
01:19PM 21.2288 86.5807 137° Southeast  Level Estimated
01:20PM 21.1234 86.6852 137° Southeast  Level Estimated
01:21PM 21.0179 86.7895 137° Southeast  Level Estimated
01:22PM 20.9124 86.8937 137° Southeast  Level Estimated
01:23PM 20.8067 86.9978 137° Southeast  Level Estimated
01:24PM 20.7011 87.1017 137° Southeast  Level Estimated
01:25PM 20.5953 87.2055 137° Southeast  Level Estimated
01:26PM 20.4895 87.3091 137° Southeast  Level Estimated
01:27PM 20.3837 87.4126 137° Southeast  Level Estimated
01:28PM 20.2777 87.5159 138° Southeast  Level Estimated
01:29PM 20.1717 87.6191 138° Southeast  Level Estimated
01:30PM 20.0657 87.7222 138° Southeast  Level Estimated
01:31PM 19.9596 87.8251 138° Southeast  Level Estimated
01:32PM 19.8534 87.9279 138° Southeast  Level Estimated
01:33PM 19.7472 88.0305 138° Southeast  Level Estimated
01:34PM 19.6409 88.1330 138° Southeast  Level Estimated
01:35PM 19.5346 88.2354 138° Southeast  Level Estimated
01:36PM 19.4282 88.3376 138° Southeast  Level Estimated
01:37PM 19.3217 88.4397 138° Southeast  Level Estimated
01:38PM 19.2152 88.5417 138° Southeast  Level Estimated
01:39PM 19.1086 88.6435 138° Southeast  Level Estimated
01:40PM 19.0020 88.7452 138° Southeast  Level Estimated
01:41PM 18.8953 88.8468 138° Southeast  Level Estimated
01:42PM 18.7886 88.9482 138° Southeast  Level Estimated
01:43PM 18.6818 89.0495 138° Southeast  Level Estimated
01:44PM 18.5750 89.1507 138° Southeast  Level Estimated
01:45PM 18.4681 89.2518 138° Southeast  Level Estimated
01:46PM 18.3611 89.3527 138° Southeast  Level Estimated
01:47PM 18.2541 89.4535 138° Southeast  Level Estimated
01:48PM 18.1471 89.5542 138° Southeast  Level Estimated
01:49PM 18.0400 89.6547 138° Southeast  Level Estimated
01:50PM 17.9328 89.7552 138° Southeast  Level Estimated
01:51PM 17.8256 89.8555 138° Southeast  Level Estimated
01:52PM 17.7183 89.9557 138° Southeast  Level Estimated
01:53PM 17.6110 90.0558 138° Southeast  Level Estimated
01:54PM 17.5037 90.1557 138° Southeast  Level Estimated
01:55PM 17.3962 90.2556 138° Southeast  Level Estimated
01:56PM 17.2888 90.3553 138° Southeast  Level Estimated
01:57PM 17.1813 90.4549 138° Southeast  Level Estimated
01:58PM 17.0737 90.5544 139° Southeast  Level Estimated
01:59PM 16.9661 90.6538 139° Southeast  Level Estimated
02:00PM 16.8584 90.7531 139° Southeast  Level Estimated
02:01PM 16.7507 90.8522 139° Southeast  Level Estimated
02:02PM 16.6430 90.9512 139° Southeast  Level Estimated
02:03PM 16.5352 91.0502 139° Southeast  Level Estimated
02:04PM 16.4273 91.1490 139° Southeast  Level Estimated
02:05PM 16.3195 91.2477 139° Southeast  Level Estimated
02:06PM 16.2115 91.3463 139° Southeast  Level Estimated
02:07PM 16.1035 91.4448 139° Southeast  Level Estimated
02:08PM 15.9955 91.5432 139° Southeast  Level Estimated
02:09PM 15.8874 91.6414 139° Southeast  Level Estimated
02:10PM 15.7793 91.7396 139° Southeast  Level Estimated
02:11PM 15.6712 91.8377 139° Southeast  Level Estimated
02:12PM 15.5629 91.9357 139° Southeast  Level Estimated
02:13PM 15.4547 92.0335 139° Southeast  Level Estimated
02:14PM 15.3464 92.1313 139° Southeast  Level Estimated
02:15PM 15.2381 92.2289 139° Southeast  Level Estimated
02:16PM 15.1297 92.3265 139° Southeast  Level Estimated
02:17PM 15.0213 92.4239 139° Southeast  Level Estimated
02:18PM 14.9128 92.5213 139° Southeast  Level Estimated
02:19PM 14.8043 92.6185 139° Southeast  Level Estimated
02:20PM 14.6958 92.7157 139° Southeast  Level Estimated
02:21PM 14.5872 92.8128 139° Southeast  Level Estimated
02:22PM 14.4786 92.9097 139° Southeast  Level Estimated
02:23PM 14.3699 93.0066 139° Southeast  Level Estimated
02:24PM 14.2612 93.1034 139° Southeast  Level Estimated
02:25PM 14.1525 93.2001 139° Southeast  Level Estimated
02:26PM 14.0437 93.2967 139° Southeast  Level Estimated
02:27PM 13.9349 93.3932 139° Southeast  Level Estimated
02:28PM 13.8260 93.4896 139° Southeast  Level Estimated
02:29PM 13.7171 93.5859 139° Southeast  Level Estimated
02:30PM 13.6082 93.6821 139° Southeast  Level Estimated
02:31PM 13.4992 93.7783 139° Southeast  Level Estimated
02:32PM 13.3902 93.8743 139° Southeast  Level Estimated
02:33PM 13.2812 93.9703 139° Southeast  Level Estimated
02:34PM 13.1721 94.0662 139° Southeast  Level Estimated
02:35PM 13.0630 94.1620 139° Southeast  Level Estimated
02:36PM 12.9538 94.2577 139° Southeast  Level Estimated
02:37PM 12.8447 94.3533 140° Southeast  Level Estimated
02:38PM 12.7354 94.4488 140° Southeast  Level Estimated
02:39PM 12.6262 94.5443 140° Southeast  Level Estimated
02:40PM 12.5169 94.6397 140° Southeast  Level Estimated
02:41PM 12.4076 94.7350 140° Southeast  Level Estimated
02:42PM 12.2982 94.8302 140° Southeast  Level Estimated
02:43PM 12.1889 94.9253 140° Southeast  Level Estimated
02:44PM 12.0794 95.0204 140° Southeast  Level Estimated
02:45PM 11.9700 95.1154 140° Southeast  Level Estimated
02:46PM 11.8605 95.2103 140° Southeast  Level Estimated
02:47PM 11.7510 95.3051 140° Southeast  Level Estimated
02:48PM 11.6414 95.3999 140° Southeast  Level Estimated
02:49PM 11.5319 95.4946 140° Southeast  Level Estimated
02:50PM 11.4223 95.5892 140° Southeast  Level Estimated
02:51PM 11.3126 95.6837 140° Southeast  Level Estimated
02:52PM 11.2029 95.7782 140° Southeast  Level Estimated
02:53PM 11.0933 95.8726 140° Southeast  Level Estimated
02:54PM 10.9835 95.9669 140° Southeast  Level Estimated
02:55PM 10.8738 96.0611 140° Southeast  Level Estimated
02:56PM 10.7640 96.1553 140° Southeast  Level Estimated
02:57PM 10.6542 96.2494 140° Southeast  Level Estimated
02:58PM 10.5443 96.3435 140° Southeast  Level Estimated
02:59PM 10.4345 96.4374 140° Southeast  Level Estimated
03:00PM 10.3246 96.5313 140° Southeast  Level Estimated
03:01PM 10.2147 96.6252 140° Southeast  Level Estimated
03:02PM 10.1047 96.7190 140° Southeast  Level Estimated
03:03PM 9.9948 96.8127 140° Southeast  Level Estimated
03:04PM 9.8848 96.9063 140° Southeast  Level Estimated
03:05PM 9.7747 96.9999 140° Southeast  Level Estimated
03:05PM 11.3990 96.6480 140° Southeast 452 520 41,000  Level FlightAware
03:06PM 9.6647 97.0935 140° Southeast  Level Estimated
03:06PM 11.3210 96.6880 153° Southeast 454 522 41,000  Level FlightAware
03:06PM 11.2780 96.7100 153° Southeast 454 522 41,000  Level FlightAware
03:07PM 11.2190 96.7410 153° Southeast 454 522 41,000  Level FlightAware
03:08PM 11.0600 96.8200 154° Southeast 456 525 41,000  Level FlightAware
03:08PM 11.0090 96.8460 153° Southeast 458 527 41,000  Level FlightAware
03:09PM 10.9000 96.9010 154° Southeast 461 531 41,000  Level FlightAware
03:10PM 10.8000 96.9520 153° Southeast 462 532 41,000  Level FlightAware
03:11PM 10.6930 97.0060 154° Southeast 462 532 41,000  Level FlightAware
03:12PM 10.5770 97.0640 154° Southeast 465 535 41,000  Level FlightAware
03:13PM 10.5110 97.0970 154° Southeast 465 535 41,000  Level FlightAware
03:14PM 10.4050 97.1510 153° Southeast 465 535 41,000  Level FlightAware
03:14PM 10.3420 97.1830 153° Southeast 469 540 41,000  Level FlightAware
03:15PM 10.2860 97.2110 154° Southeast 467 537 41,000  Level FlightAware
03:16PM 10.1740 97.2670 154° Southeast 462 532 41,000  Level FlightAware
03:16PM 10.0990 97.3050 153° Southeast 465 535 41,000  Level FlightAware
03:17PM 10.0300 97.3400 153° Southeast 468 539 41,000  Level FlightAware
03:18PM 9.9150 97.3980 154° Southeast 467 537 41,000  Level FlightAware
03:19PM 9.8220 97.4450 154° Southeast 466 536 41,000  Level FlightAware
03:20PM 9.6900 97.5120 153° Southeast 467 537 41,000  Level FlightAware
03:20PM 9.6330 97.5410 153° Southeast 466 536 41,000  Level FlightAware
03:22PM 9.4920 97.6130 153° Southeast 465 535 41,000  Level FlightAware
03:22PM 9.4300 97.6440 154° Southeast 464 534 41,000  Level FlightAware
03:23PM 9.3210 97.6990 154° Southeast 466 536 41,000  Level FlightAware
03:24PM 9.2510 97.7350 153° Southeast 467 537 41,000  Level FlightAware
03:24PM 9.1930 97.7640 154° Southeast 468 539 41,000  Level FlightAware
03:25PM 9.0740 97.8240 154° Southeast 465 535 41,000  Level FlightAware
03:26PM 8.9740 97.8740 154° Southeast 462 532 41,000  Level FlightAware
03:27PM 8.8500 97.9370 153° Southeast 465 535 41,000  Level FlightAware
03:28PM 8.7880 97.9680 154° Southeast 467 537 41,000  Level FlightAware
03:29PM 8.6800 98.0220 154° Southeast 465 535 41,000  Level FlightAware
03:29PM 8.5960 98.0650 153° Southeast 459 528 41,000  Level FlightAware
03:30PM 8.5450 98.0900 154° Southeast 459 528 41,000  Level FlightAware
03:31PM 8.4320 98.1470 153° Southeast 456 525 41,000  Level FlightAware
03:32PM 8.3330 98.1970 153° Southeast 454 522 41,000  Level FlightAware
03:32PM 8.2700 98.2290 153° Southeast 453 521 41,000  Level FlightAware
03:33PM 8.1880 98.2700 154° Southeast 455 524 41,000  Level FlightAware
03:33PM 8.1200 98.3070 152° Southeast 455 524 41,000  Level FlightAware
03:34PM 8.0320 98.3750 143° Southeast 456 525 41,000  Level FlightAware
03:35PM 7.9780 98.4190 141° Southeast 458 527 41,000  Level FlightAware
03:35PM 7.9230 98.4650 140° Southeast 458 527 41,000  Level FlightAware
03:36PM 7.8680 98.5100 141° Southeast 454 522 41,000  Level FlightAware
03:36PM 7.8200 98.5500 140° Southeast 454 522 41,000  Level FlightAware
03:37PM 7.7760 98.5860 141° Southeast 455 524 41,000  Level FlightAware
03:38PM 7.7160 98.6350 141° Southeast 457 526 41,000  Level FlightAware
03:38PM 7.6580 98.6830 141° Southeast 457 526 41,000  Level FlightAware
03:39PM 7.5900 98.7380 141° Southeast 455 524 41,000  Level FlightAware
03:39PM 7.5320 98.7860 141° Southeast 454 522 41,000  Level FlightAware
03:40PM 7.4700 98.8370 141° Southeast 456 525 41,000  Level FlightAware
03:41PM 7.4170 98.8800 141° Southeast 457 526 41,000  Level FlightAware
03:42PM 7.3060 98.9710 141° Southeast 459 528 41,000  Level FlightAware
03:42PM 7.2480 99.0190 141° Southeast 456 525 41,000  Level FlightAware
03:43PM 7.1900 99.0670 141° Southeast 452 520 41,000  Level FlightAware
03:44PM 7.0910 99.1470 141° Southeast 451 519 41,000  Level FlightAware
03:44PM 7.0450 99.1850 141° Southeast 454 522 41,000  Level FlightAware
03:45PM 6.9600 99.2540 141° Southeast 455 524 41,000  Level FlightAware
03:46PM 6.8680 99.3300 141° Southeast 453 521 41,000  Level FlightAware
03:47PM 6.7780 99.4030 141° Southeast 453 521 41,000  Level FlightAware
03:48PM 6.6810 99.4830 141° Southeast 454 522 41,000  Level FlightAware
03:49PM 6.6310 99.5240 141° Southeast 452 520 41,000  Level FlightAware
03:49PM 6.5740 99.5700 141° Southeast 450 518 41,000  Level FlightAware
03:50PM 6.5210 99.6130 141° Southeast 452 520 41,000  Level FlightAware
03:50PM 6.4690 99.6560 141° Southeast 452 520 41,000  Level FlightAware
03:51PM 6.3890 99.7200 142° Southeast 453 521 41,000  Level FlightAware
03:52PM 6.3000 99.7910 142° Southeast 455 524 41,000  Level FlightAware
03:53PM 6.2450 99.8310 144° Southeast 456 525 41,000  Level FlightAware
03:53PM 6.1530 99.9010 143° Southeast 456 525 41,000  Level FlightAware
03:54PM 6.1000 99.9410 143° Southeast 459 528 41,000  Level FlightAware
03:55PM 6.0420 99.9850 143° Southeast 459 528 41,000  Level FlightAware
03:55PM 5.9480 100.0560 143° Southeast 461 531 41,000  Level FlightAware
03:57PM 5.8220 100.1540 142° Southeast 459 528 41,000  Level FlightAware
03:57PM 5.7440 100.2130 143° Southeast 462 532 41,000  Level FlightAware
03:58PM 5.6850 100.2570 143° Southeast 461 531 41,000  Level FlightAware
03:58PM 5.6420 100.2900 143° Southeast 460 529 41,000  Level FlightAware
03:59PM 5.5650 100.3480 143° Southeast 459 528 41,000  Level FlightAware
04:00PM 5.5180 100.3830 143° Southeast 458 527 41,000  Level FlightAware
04:00PM 5.4560 100.4300 143° Southeast 459 528 41,000  Level FlightAware
04:01PM 5.4030 100.4690 144° Southeast 461 531 41,000  Level FlightAware
04:01PM 5.3360 100.5200 143° Southeast 463 533 41,000  Level FlightAware
04:02PM 5.2700 100.5700 143° Southeast 460 529 41,000  Level FlightAware
04:03PM 5.2200 100.6080 143° Southeast 459 528 41,000  Level FlightAware
04:03PM 5.1650 100.6490 143° Southeast 461 531 41,000  Level FlightAware
04:04PM 5.0970 100.7010 143° Southeast 462 532 41,000  Level FlightAware
04:05PM 4.9860 100.7840 143° Southeast 464 534 41,000  Level FlightAware
04:05PM 4.9430 100.8160 143° Southeast 462 532 41,000  Level FlightAware
04:06PM 4.8730 100.8690 143° Southeast 460 529 41,000  Level FlightAware
04:07PM 4.7960 100.9260 144° Southeast 462 532 41,000  Level FlightAware
04:07PM 4.7270 100.9780 143° Southeast 464 534 41,000  Level FlightAware
04:08PM 4.6590 101.0290 143° Southeast 465 535 41,000  Level FlightAware
04:09PM 4.6060 101.0650 146° Southeast 463 533 41,000  Level FlightAware
04:09PM 4.5300 101.1020 154° Southeast 458 527 41,000  Level FlightAware
04:10PM 4.4170 101.1390 162° South 459 528 41,000  Level FlightAware
04:11PM 4.3670 101.1540 163° South 461 531 41,000  Level FlightAware
04:12PM 4.2230 101.1960 164° South 460 529 41,000  Level FlightAware
04:12PM 4.1500 101.2170 164° South 459 528 41,000  Level FlightAware
04:13PM 4.0280 101.2520 164° South 461 531 41,000  Level FlightAware
04:14PM 3.9280 101.2830 163° South 460 529 41,000  Level FlightAware
04:15PM 3.8750 101.3110 152° Southeast 461 531 41,000  Level FlightAware
04:15PM 3.8170 101.3480 148° Southeast 464 534 41,000  Level FlightAware
04:16PM 3.7470 101.3900 149° Southeast 463 533 41,000  Level FlightAware
04:17PM 3.6430 101.4510 150° Southeast 462 532 41,000  Level FlightAware
04:17PM 3.5570 101.5020 149° Southeast 463 533 41,000  Level FlightAware
04:18PM 3.5100 101.5300 149° Southeast 465 535 41,000  Level FlightAware
04:19PM 3.4240 101.5810 149° Southeast 460 529 41,000  Level FlightAware ADS-B (WMSA / SZB)
04:19PM 3.3505 101.6245 149° Southeast 460 529 41,000  Level FlightAware ADS-B (WMSA / SZB)
04:20PM 3.2816 101.6653 149° Southeast 459 528 41,000  Level FlightAware ADS-B (WMSA / SZB)
04:20PM 3.2176 101.7032 149° Southeast 458 527 41,000  Level FlightAware ADS-B (WMSA / SZB)
04:21PM 3.1570 101.7390 149° Southeast 459 528 41,000  Level FlightAware
04:22PM 3.0400 101.8080 150° Southeast 464 534 41,000  Level FlightAware
04:23PM 2.9700 101.8500 149° Southeast 463 533 41,000  Level FlightAware
04:23PM 2.9360 101.8700 150° Southeast 464 534 41,000  Level FlightAware
04:24PM 2.8620 101.9140 149° Southeast 466 536 41,000  Level FlightAware
04:24PM 2.8020 101.9490 150° Southeast 466 536 41,000  Level FlightAware
04:25PM 2.7270 101.9940 149° Southeast 464 534 41,000  Level FlightAware
04:26PM 2.6380 102.0470 149° Southeast 466 536 41,000  Level FlightAware
04:26PM 2.5960 102.0710 150° Southeast 465 535 41,000  Level FlightAware
04:27PM 2.5210 102.1160 149° Southeast 461 531 41,000  Level FlightAware
04:28PM 2.4880 102.1360 149° Southeast 461 531 41,000 -600 Level FlightAware
04:29PM 2.2800 102.2580 150° Southeast 463 533 39,800  Descending FlightAware
04:29PM 2.3690 102.2060 330° Northwest 465 535 41,000 -1,560 Climbing FlightAware
04:31PM 2.1110 102.3590 149° Southeast 464 534 37,100 -2,940 Descending FlightAware
04:31PM 2.1310 102.3500 336° Northwest 461 531 35,600 -1,740 Descending FlightAware
04:32PM 2.0950 102.3740 146° Southeast 461 531 35,600  Level FlightAware
04:32PM 2.0220 102.4240 146° Southeast 461 531 35,600 -2,220 Level FlightAware
04:34PM 1.8940 102.5980 126° Southeast 436 502 31,100 -3,360 Descending FlightAware
04:34PM 1.8470 102.6850 118° Southeast 437 503 29,200 -2,580 Descending FlightAware
04:35PM 1.8020 102.7700 118° Southeast 431 496 27,700 -1,980 Descending FlightAware
04:36PM 1.7450 102.8760 118° Southeast 420 483 25,900 -1,800 Descending FlightAware
04:36PM 1.7370 102.8910 118° Southeast 417 480 25,600 -1,680 Descending FlightAware
04:37PM 1.7120 102.9370 119° Southeast 412 474 24,800 -1,980 Descending FlightAware
04:38PM 1.6320 103.0810 119° Southeast 389 448 22,400 -1,680 Descending FlightAware
04:38PM 1.6030 103.1160 130° Southeast 368 423 22,200 -1,200 Descending FlightAware
04:39PM 1.5180 103.1840 141° Southeast 353 406 20,600 -1,500 Descending FlightAware
04:40PM 1.4670 103.2170 147° Southeast 346 398 19,700 -1,980 Descending FlightAware
04:41PM 1.4000 103.2770 138° Southeast 351 404 17,500 -2,340 Descending FlightAware
04:41PM 1.3750 103.3120 126° Southeast 362 417 16,400 -2,280 Descending FlightAware
04:42PM 1.3090 103.4030 126° Southeast 364 419 14,100 -2,040 Descending FlightAware
04:43PM 1.2520 103.4830 125° Southeast 354 407 12,200 -1,740 Descending FlightAware
04:44PM 1.2100 103.5400 126° Southeast 346 398 11,000 -900 Descending FlightAware
04:45PM 1.1820 103.5790 126° Southeast 346 398 11,000 -1,620 Level FlightAware
04:46PM 1.1620 103.6570 104° East 345 397 8,900 -3,600 Descending FlightAware
04:46PM 1.1680 103.7100 84° East 328 377 6,600 -3,000 Descending FlightAware
04:47PM 1.1600 103.7610 99° East 283 326 5,600 -2,040 Descending FlightAware
04:47PM 1.1540 103.7980 99° East 270 311 4,400 -2,040 Descending FlightAware
04:48PM 1.1470 103.8440 99° East 268 308 3,400 -1,620 Descending FlightAware
04:48PM 1.1470 103.8510 90° East 265 305 3,300 -420 Descending FlightAware
04:49PM 1.1660 103.8900 64° Northeast 230 265 3,100 -420 Descending FlightAware
04:49PM 1.1900 103.9100 40° Northeast 207 238 2,800 -480 Descending FlightAware
04:50PM 1.2100 103.9190 24° Northeast 192 221 2,700 -540 Descending FlightAware
04:50PM 1.2300 103.9270 22° Northeast 175 201 2,400 -660 Descending FlightAware
04:50PM 1.2460 103.9340 24° Northeast 168 193 2,200 -720 Descending FlightAware
04:51PM 1.2670 103.9430 23° Northeast 166 191 1,800 -900 Descending FlightAware
04:51PM 1.2920 103.9530 22° Northeast 144 166 1,300 -720 Descending FlightAware
04:52PM 1.3160 103.9640 25° Northeast 133 153 900 -720 Descending FlightAware
04:52PM 1.3270 103.9680 20° North 132 152 600 -720 Descending FlightAware
04:53PM 1.3460 103.9760 23° Northeast 136 157 300 -420 Descending FlightAware
04:53PM 1.3590 103.9820 25° Northeast 136 157 200 -240 Descending FlightAware
04:53PM 1.3610 103.9830 27° Northeast 100 115 -4,020 Descending FlightAware
04:54PM 1.3700 103.9860 18° North 100 115  Level FlightAware